SondeTracker

Meteorological Radiosondes Database

Operations

Sounding was ended - last measurement: 2022-12-07 01:14:11z

MAP
About Radiosonde

Number: S5010191

Launch Site: Santander (ES)

Type: RS41

AUX: NO

Frequency: 401.500 MHz

Max Speed: 81 km/h at 11850 m

Average Speed: 37.10 km/h

Max Altitude: 27089 m

Average Ascent Speed: 4.06 m/s

Average Descent Speed: 35.86 m/s

Status: LOST

Status Changes
Launch Site Type AUX Frequency Status Finder Landing Point Description Changes made by
MHz LOST 0, 0 AUTO STATUS: Probably lost in the water [BOT]AUTO-STATUS - 2022-12-07 02:21:59z
APRS Statistics

Received Frames: 588

First Frame [UTC]: 2022-12-06 23:19:21z

Last Frame [UTC]: 2022-12-07 01:14:11z

Receivers: EA1EF-14, EA1JAY-16, EA4EKH-11, F4IKI

Flight Time: 01:54:50 h

Distance From First Measurement: 60.97 km

Nearest City: Sopelana (ES) [6.75 km]

Nearest Hunter: EA2 [6.87 km]

Ground Altitude: -123 m

Distance from QTH: 0.00 km

APRS Data
Receiver Number Date/Time [UTC] φ λ Course [°] Speed [km/h] Altitude [m] Description
EA1EF-14S50101912022-12-07 01:14:1143.4197-3.0441190377042Clb=-21.9m/s t=-31.4C 401.50MHz Type=RS41-SG meteocampoo.es - http://radiosondy.info
EA1EF-14S50101912022-12-07 01:13:5743.4194-3.0461373487385Clb=-22.3m/s t=-33.3C 401.50MHz Type=RS41-SG meteocampoo.es - http://radiosondy.info
EA1EF-14S50101912022-12-07 01:13:4243.419-3.0487382547731Clb=-22.9m/s t=-36.1C 401.50MHz Type=RS41-SG meteocampoo.es - http://radiosondy.info
EA1EF-14S50101912022-12-07 01:13:0543.4183-3.0559388598633Clb=-22.4m/s t=-44.0C 401.50MHz Type=RS41-SG meteocampoo.es - http://radiosondy.info
EA1EF-14S50101912022-12-07 01:12:5043.4182-3.0591387578996Clb=-23.2m/s t=-47.5C 401.50MHz Type=RS41-SG meteocampoo.es - http://radiosondy.info
EA1EF-14S50101912022-12-07 01:12:0843.4179-3.06693896510052Clb=-27.5m/s t=-54.3C 401.50MHz Type=RS41-SG meteocampoo.es - http://radiosondy.info
EA1EF-14S50101912022-12-07 01:11:5243.418-3.07052956510491Clb=-27.8m/s t=-57.3C 401.50MHz Type=RS41-SG meteocampoo.es - http://radiosondy.info
EA1EF-14S50101912022-12-07 01:11:3543.4184-3.074361006910973Clb=-29.3m/s t=-60.0C 401.50MHz Type=RS41-SG meteocampoo.es - http://radiosondy.info
EA4EKH-11S50101912022-12-07 01:11:2043.4186-3.07992837011709Clb=-30.8m/s t=-60.0C h=6.8% p=-1.0hPa 401.501 MHz Type=RS41-SG ser=S5010191 Radiosonde
EA1EF-14S50101912022-12-07 01:11:0843.4185-3.0807896911800Clb=-30.9m/s t=-60.4C 401.50MHz Type=RS41-SG meteocampoo.es - http://radiosondy.info
EA4EKH-11S50101912022-12-07 01:10:5043.4186-3.08509806312389Clb=-32.4m/s t=-57.5C h=2.9% p=-1.0hPa 401.501 MHz Type=RS41-SG ser=S5010191 Radiosonde
EA1EF-14S50101912022-12-07 01:10:3243.4186-3.08891975012977Clb=-34.1m/s t=-57.1C 401.50MHz Type=RS41-SG meteocampoo.es - http://radiosondy.info
EA4EKH-11S50101912022-12-07 01:10:1943.4185-3.09113805213419Clb=-35.1m/s t=-58.4C h=2.3% p=-1.0hPa 401.501 MHz Type=RS41-SG ser=S5010191 Radiosonde
EA1EF-14S50101912022-12-07 01:10:1643.4184-3.0917875613522Clb=-34.5m/s t=-58.4C 401.50MHz Type=RS41-SG meteocampoo.es - http://radiosondy.info
EA1EF-14S50101912022-12-07 01:10:0043.4185-3.09468884614087Clb=-36.7m/s t=-59.0C 401.50MHz Type=RS41-SG meteocampoo.es - http://radiosondy.info
EA4EKH-11S50101912022-12-07 01:09:4643.4184-3.0966874814526Clb=-37.6m/s t=-60.3C h=2.3% p=-1.0hPa 401.501 MHz Type=RS41-SG ser=S5010191 Radiosonde
EA1EF-14S50101912022-12-07 01:09:4343.4184-3.09723895214677Clb=-38.3m/s t=-60.9C 401.50MHz Type=RS41-SG meteocampoo.es - http://radiosondy.info
EA1EF-14S50101912022-12-07 01:09:2543.4183-3.1001985015305Clb=-40.5m/s t=-61.5C 401.50MHz Type=RS41-SG meteocampoo.es - http://radiosondy.info
EA4EKH-11S50101912022-12-07 01:09:1343.4185-3.10205965215796Clb=-41.5m/s t=-61.5C h=2.1% p=-1.0hPa 401.501 MHz Type=RS41-SG ser=S5010191 Radiosonde
EA1EF-14S50101912022-12-07 01:09:0843.4186-3.102791014615960Clb=-40.9m/s t=-61.6C 401.50MHz Type=RS41-SG meteocampoo.es - http://radiosondy.info
EA1EF-14S50101912022-12-07 01:08:5143.419-3.10519952816600Clb=-41.5m/s t=-62.4C 401.50MHz Type=RS41-SG meteocampoo.es - http://radiosondy.info
EA4EKH-11S50101912022-12-07 01:08:4143.4189-3.10628852617047Clb=-39.6m/s t=-61.0C h=1.7% p=-1.0hPa 401.501 MHz Type=RS41-SG ser=S5010191 Radiosonde
EA1EF-14S50101912022-12-07 01:08:3543.4189-3.10677913117245Clb=-40.9m/s t=-61.6C 401.50MHz Type=RS41-SG meteocampoo.es - http://radiosondy.info
EA1EF-14S50101912022-12-07 01:08:1843.4191-3.108471171917898Clb=-42.2m/s t=-62.2C 401.50MHz Type=RS41-SG meteocampoo.es - http://radiosondy.info
F4IKIS50101912022-12-07 01:08:1043.4194-3.108981191918288Clb=-44.4m/s t=-61.6C h=1.6% p=-1.0hPa 401.501 MHz Type=RS41-SG ser=S5010191 Radiosonde
EA4EKH-11S50101912022-12-07 01:08:0943.4194-3.109041141918332Clb=-44.2m/s t=-61.3C h=1.6% p=-1.0hPa 401.501 MHz Type=RS41-SG ser=S5010191 Radiosonde
EA1EF-14S50101912022-12-07 01:08:0243.4195-3.10931121718600Clb=-46.6m/s t=-62.2C 401.50MHz Type=RS41-SG meteocampoo.es - http://radiosondy.info
EA1EF-14S50101912022-12-07 01:07:4543.4199-3.110081192619346Clb=-47.5m/s t=-62.1C 401.50MHz Type=RS41-SG meteocampoo.es - http://radiosondy.info
EA4EKH-11S50101912022-12-07 01:07:3543.4202-3.110721262819762Clb=-44.9m/s t=-62.3C h=1.6% p=-1.0hPa 401.501 MHz Type=RS41-SG ser=S5010191 Radiosonde
EA1EF-14S50101912022-12-07 01:07:2843.4205-3.111231462820075Clb=-47.7m/s t=-63.0C 401.50MHz Type=RS41-SG meteocampoo.es - http://radiosondy.info
EA1EF-14S50101912022-12-07 01:07:0843.4215-3.111661722420854Clb=-48.0m/s t=-61.2C 401.50MHz Type=RS41-SG meteocampoo.es - http://radiosondy.info
EA4EKH-11S50101912022-12-07 01:07:0043.422-3.111731822021259Clb=-52.9m/s t=-61.3C h=1.3% p=-1.0hPa 401.501 MHz Type=RS41-SG ser=S5010191 Radiosonde
EA1EF-14S50101912022-12-07 01:06:5143.4225-3.111751761521686Clb=-53.2m/s t=-61.4C 401.50MHz Type=RS41-SG meteocampoo.es - http://radiosondy.info
EA1EF-14S50101912022-12-07 01:06:3343.4231-3.111841751122528Clb=-54.5m/s t=-62.2C 401.50MHz Type=RS41-SG meteocampoo.es - http://radiosondy.info
F4IKIS50101912022-12-07 01:06:2743.4233-3.11189155622907Clb=-57.8m/s t=-61.1C h=1.2% p=-1.0hPa 401.501 MHz Type=RS41-SG ser=S5010191 Radiosonde
EA4EKH-11S50101912022-12-07 01:06:2643.4233-3.11189155622907Clb=-57.8m/s t=-61.1C h=1.2% p=-1.0hPa 401.501 MHz Type=RS41-SG ser=S5010191 Radiosonde
EA1EF-14S50101912022-12-07 01:06:1643.4236-3.112041462623449Clb=-61.0m/s t=-62.3C 401.50MHz Type=RS41-SG meteocampoo.es - http://radiosondy.info
EA1EF-14S50101912022-12-07 01:05:5843.4245-3.112551562824418Clb=-61.3m/s t=-61.8C 401.50MHz Type=RS41-SG meteocampoo.es - http://radiosondy.info
F4IKIS50101912022-12-07 01:05:5243.4247-3.112781362424714Clb=-60.6m/s t=-60.6C h=1.2% p=-1.0hPa 401.501 MHz Type=RS41-SG ser=S5010191 Radiosonde
EA1EF-14S50101912022-12-07 01:05:4043.4252-3.113731113725394Clb=-61.9m/s t=-59.5C 401.50MHz Type=RS41-SG meteocampoo.es - http://radiosondy.info
EA1EF-14S50101912022-12-07 01:05:2043.4262-3.115531273726478Clb=-62.4m/s t=-61.2C 401.50MHz Type=RS41-SG meteocampoo.es - http://radiosondy.info
F4IKIS50101912022-12-07 01:05:1843.4263-3.115721263326604Clb=-61.5m/s t=-61.0C h=1.1% p=-1.0hPa 401.501 MHz Type=RS41-SG ser=S5010191 Radiosonde
EA4EKH-11S50101912022-12-07 01:05:1743.4264-3.115811263126664Clb=-59.9m/s t=-60.9C h=1.0% p=-1.0hPa 401.501 MHz Type=RS41-SG ser=S5010191 Radiosonde
EA1EF-14S50101912022-12-07 01:04:5243.4271-3.118541174127089Clb=4.3m/s t=-63.1C 401.50MHz Type=RS41-SG meteocampoo.es - http://radiosondy.info
F4IKIS50101912022-12-07 01:04:4343.4274-3.119691084127046Clb=4.8m/s t=-62.4C h=1.3% p=-1.0hPa 401.501 MHz Type=RS41-SG ser=S5010191 Radiosonde
EA1EF-14S50101912022-12-07 01:04:3243.4278-3.120711183727000Clb=4.4m/s t=-62.5C 401.50MHz Type=RS41-SG meteocampoo.es - http://radiosondy.info
EA1EF-14S50101912022-12-07 01:04:1543.4286-3.122461163926921Clb=4.3m/s t=-62.0C 401.50MHz Type=RS41-SG meteocampoo.es - http://radiosondy.info
F4IKIS50101912022-12-07 01:04:0943.4288-3.122991373126897Clb=4.9m/s t=-61.6C h=1.2% p=-1.0hPa 401.501 MHz Type=RS41-SG ser=S5010191 Radiosonde
EA4EKH-11S50101912022-12-07 01:04:0843.4289-3.123061433526892Clb=5.3m/s t=-61.6C h=1.2% p=-1.0hPa 401.501 MHz Type=RS41-SG ser=S5010191 Radiosonde
EA1EF-14S50101912022-12-07 01:03:5743.4296-3.12391363926844Clb=5.0m/s t=-62.0C 401.50MHz Type=RS41-SG meteocampoo.es - http://radiosondy.info
EA1EF-14S50101912022-12-07 01:03:4143.4309-3.125111353126762Clb=4.9m/s t=-62.0C 401.50MHz Type=RS41-SG meteocampoo.es - http://radiosondy.info
F4IKIS50101912022-12-07 01:03:3743.4312-3.125561373026737Clb=4.3m/s t=-61.8C h=1.2% p=-1.0hPa 401.501 MHz Type=RS41-SG ser=S5010191 Radiosonde
EA4EKH-11S50101912022-12-07 01:03:3643.4312-3.125561373026737Clb=4.3m/s t=-61.8C h=1.2% p=-1.0hPa 401.501 MHz Type=RS41-SG ser=S5010191 Radiosonde
EA1EF-14S50101912022-12-07 01:03:2543.4318-3.126151343126682Clb=5.5m/s 401.50MHz Type=RS41-SG meteocampoo.es - http://radiosondy.info
EA1EF-14S50101912022-12-07 01:03:0943.4327-3.127331323126602Clb=4.9m/s t=-62.1C 401.50MHz Type=RS41-SG meteocampoo.es - http://radiosondy.info
F4IKIS50101912022-12-07 01:03:0643.433-3.127721303326582Clb=4.4m/s t=-61.9C h=1.2% p=-1.0hPa 401.501 MHz Type=RS41-SG ser=S5010191 Radiosonde
EA4EKH-11S50101912022-12-07 01:03:0543.433-3.127721303326582Clb=4.4m/s t=-61.9C h=1.2% p=-1.0hPa 401.501 MHz Type=RS41-SG ser=S5010191 Radiosonde
EA1EF-14S50101912022-12-07 01:02:5343.4335-3.128681333126524Clb=4.7m/s t=-62.3C 401.50MHz Type=RS41-SG meteocampoo.es - http://radiosondy.info
EA1EF-14S50101912022-12-07 01:02:3743.4343-3.130061313326445Clb=5.1m/s t=-62.1C 401.50MHz Type=RS41-SG meteocampoo.es - http://radiosondy.info
F4IKIS50101912022-12-07 01:02:3543.4344-3.130271383326430Clb=4.3m/s t=-61.7C h=1.1% p=-1.0hPa 401.501 MHz Type=RS41-SG ser=S5010191 Radiosonde
EA4EKH-11S50101912022-12-07 01:02:3443.4344-3.130271383326430Clb=4.3m/s t=-61.7C h=1.1% p=-1.0hPa 401.501 MHz Type=RS41-SG ser=S5010191 Radiosonde
EA1EF-14S50101912022-12-07 01:02:2143.4353-3.131351353726364Clb=5.6m/s t=-61.9C 401.50MHz Type=RS41-SG meteocampoo.es - http://radiosondy.info
EA1EF-14S50101912022-12-07 01:02:0543.4364-3.132691423926286Clb=5.5m/s t=-61.7C 401.50MHz Type=RS41-SG meteocampoo.es - http://radiosondy.info
F4IKIS50101912022-12-07 01:02:0443.4366-3.132911413326271Clb=5.6m/s t=-61.3C h=1.2% p=-1.0hPa 401.501 MHz Type=RS41-SG ser=S5010191 Radiosonde
EA4EKH-11S50101912022-12-07 01:02:0343.4366-3.132911413326271Clb=5.6m/s t=-61.3C h=1.2% p=-1.0hPa 401.501 MHz Type=RS41-SG ser=S5010191 Radiosonde
EA1EF-14S50101912022-12-07 01:01:4943.4377-3.133911474326209Clb=4.6m/s t=-61.2C 401.50MHz Type=RS41-SG meteocampoo.es - http://radiosondy.info
F4IKIS50101912022-12-07 01:01:3343.4391-3.135341353926127Clb=5.1m/s t=-60.5C h=1.1% p=-1.0hPa 401.501 MHz Type=RS41-SG ser=S5010191 Radiosonde
EA1EF-14S50101912022-12-07 01:01:3143.4392-3.135511314326116Clb=4.9m/s t=-60.8C 401.50MHz Type=RS41-SG meteocampoo.es - http://radiosondy.info
EA1EF-14S50101912022-12-07 01:01:1343.4405-3.137081424126036Clb=4.2m/s t=-60.8C 401.50MHz Type=RS41-SG meteocampoo.es - http://radiosondy.info
F4IKIS50101912022-12-07 01:01:0243.4416-3.138141343325978Clb=5.5m/s t=-60.2C h=1.1% p=-1.0hPa 401.501 MHz Type=RS41-SG ser=S5010191 Radiosonde
EA1EF-14S50101912022-12-07 01:00:5643.4419-3.138471464325956Clb=4.5m/s t=-60.4C 401.50MHz Type=RS41-SG meteocampoo.es - http://radiosondy.info
EA1EF-14S50101912022-12-07 01:00:5443.4431-3.140151364325883Clb=4.8m/s t=-59.8C 401.50MHz Type=RS41-SG meteocampoo.es - http://radiosondy.info
EA4EKH-11S50101912022-12-07 01:00:5343.4438-3.141421173125831Clb=5.3m/s t=-59.2C h=1.0% p=-1.0hPa 401.501 MHz Type=RS41-SG ser=S5010191 Radiosonde
EA4EKH-11S50101912022-12-07 01:00:5243.4454-3.145761004325685Clb=5.1m/s t=-60.5C h=1.0% p=-1.0hPa 401.501 MHz Type=RS41-SG ser=S5010191 Radiosonde
EA1EF-14S50101912022-12-07 01:00:5143.4458-3.148841103725582Clb=4.5m/s t=-61.2C 401.50MHz Type=RS41-SG meteocampoo.es - http://radiosondy.info
EA4EKH-11S50101912022-12-07 01:00:5043.4461-3.149821023725540Clb=4.7m/s t=-60.7C h=1.1% p=-1.0hPa 401.501 MHz Type=RS41-SG ser=S5010191 Radiosonde
EA1EF-14S50101912022-12-07 01:00:4943.4464-3.15245783025436Clb=4.5m/s t=-61.0C 401.50MHz Type=RS41-SG meteocampoo.es - http://radiosondy.info
EA1EF-14S50101912022-12-07 01:00:4843.4464-3.15398912425365Clb=3.8m/s t=-61.0C 401.50MHz Type=RS41-SG meteocampoo.es - http://radiosondy.info
EA1EF-14S50101912022-12-07 01:00:4743.4467-3.155181232425293Clb=3.9m/s t=-60.9C 401.50MHz Type=RS41-SG meteocampoo.es - http://radiosondy.info
EA1EF-14S50101912022-12-07 01:00:4643.4473-3.156181423325224Clb=4.0m/s t=-61.4C 401.50MHz Type=RS41-SG meteocampoo.es - http://radiosondy.info
EA1EF-14S50101912022-12-07 01:00:4143.4484-3.157371433025153Clb=4.4m/s t=-61.2C 401.50MHz Type=RS41-SG meteocampoo.es - http://radiosondy.info
EA4EKH-11S50101912022-12-07 01:00:4043.4487-3.15781423925128Clb=3.9m/s t=-61.0C h=1.1% p=-1.0hPa 401.501 MHz Type=RS41-SG ser=S5010191 Radiosonde
EA1EF-14S50101912022-12-07 01:00:3743.4493-3.158281562825084Clb=4.2m/s t=-61.6C 401.50MHz Type=RS41-SG meteocampoo.es - http://radiosondy.info
EA1EF-14S50101912022-12-07 01:00:3343.4503-3.158671753325020Clb=3.8m/s t=-62.2C 401.50MHz Type=RS41-SG meteocampoo.es - http://radiosondy.info
F4IKIS50101912022-12-07 01:00:3243.4509-3.158841713024994Clb=4.6m/s t=-62.0C h=1.2% p=-1.0hPa 401.501 MHz Type=RS41-SG ser=S5010191 Radiosonde
EA1EF-14S50101912022-12-07 01:00:2943.4516-3.159071482824952Clb=3.8m/s t=-62.0C 401.50MHz Type=RS41-SG meteocampoo.es - http://radiosondy.info
EA1EF-14S50101912022-12-07 01:00:2243.4527-3.15941382024882Clb=3.6m/s t=-62.8C 401.50MHz Type=RS41-SG meteocampoo.es - http://radiosondy.info
EA4EKH-11S50101912022-12-07 01:00:2143.4529-3.159591672424860Clb=4.8m/s t=-62.5C h=1.3% p=-1.0hPa 401.501 MHz Type=RS41-SG ser=S5010191 Radiosonde
EA4EKH-11S50101912022-12-07 01:00:2043.4543-3.160141571924717Clb=4.6m/s t=-62.8C h=1.3% p=-1.0hPa 401.501 MHz Type=RS41-SG ser=S5010191 Radiosonde
EA1EF-14S50101912022-12-07 01:00:1943.4551-3.160651851924595Clb=4.2m/s t=-63.7C 401.50MHz Type=RS41-SG meteocampoo.es - http://radiosondy.info
EA1EF-14S50101912022-12-07 01:00:1843.4559-3.160551912824522Clb=4.3m/s t=-63.7C 401.50MHz Type=RS41-SG meteocampoo.es - http://radiosondy.info
EA1EF-14S50101912022-12-07 01:00:1343.4569-3.160251843124447Clb=4.7m/s t=-63.4C 401.50MHz Type=RS41-SG meteocampoo.es - http://radiosondy.info
F4IKIS50101912022-12-07 01:00:0943.4574-3.160181903324418Clb=5.6m/s t=-62.9C h=1.3% p=-1.0hPa 401.501 MHz Type=RS41-SG ser=S5010191 Radiosonde
EA1EF-14S50101912022-12-07 01:00:0043.4582-3.160121793524368Clb=5.4m/s t=-63.3C 401.50MHz Type=RS41-SG meteocampoo.es - http://radiosondy.info
EA1EF-14S50101912022-12-07 00:59:3743.4598-3.160181723524279Clb=4.3m/s t=-62.8C 401.50MHz Type=RS41-SG meteocampoo.es - http://radiosondy.info
EA4EKH-11S50101912022-12-07 00:59:3343.4602-3.160241763124260Clb=4.4m/s t=-62.4C h=1.3% p=-1.0hPa 401.501 MHz Type=RS41-SG ser=S5010191 Radiosonde
EA1EF-14S50101912022-12-07 00:59:1643.4611-3.160411703124201Clb=4.9m/s t=-62.6C 401.50MHz Type=RS41-SG meteocampoo.es - http://radiosondy.info
EA1EF-14S50101912022-12-07 00:58:5443.4623-3.160791722824126Clb=4.1m/s t=-62.3C 401.50MHz Type=RS41-SG meteocampoo.es - http://radiosondy.info
F4IKIS50101912022-12-07 00:58:5143.4625-3.160811732824117Clb=5.3m/s t=-62.1C h=1.3% p=-1.0hPa 401.501 MHz Type=RS41-SG ser=S5010191 Radiosonde
EA4EKH-11S50101912022-12-07 00:58:5043.4625-3.160821713024112Clb=4.5m/s t=-62.1C h=1.3% p=-1.0hPa 401.501 MHz Type=RS41-SG ser=S5010191 Radiosonde
EA1EF-14S50101912022-12-07 00:58:3243.4634-3.16121742824052Clb=5.2m/s t=-62.4C 401.50MHz Type=RS41-SG meteocampoo.es - http://radiosondy.info
EA1EF-14S50101912022-12-07 00:58:1043.4644-3.161931642623977Clb=4.5m/s t=-62.0C 401.50MHz Type=RS41-SG meteocampoo.es - http://radiosondy.info
F4IKIS50101912022-12-07 00:58:0943.4645-3.161971582823972Clb=4.9m/s t=-61.7C h=1.3% p=-1.0hPa 401.501 MHz Type=RS41-SG ser=S5010191 Radiosonde
EA4EKH-11S50101912022-12-07 00:58:0843.4645-3.162011482423968Clb=4.1m/s t=-61.7C h=1.3% p=-1.0hPa 401.501 MHz Type=RS41-SG ser=S5010191 Radiosonde
EA1EF-14S50101912022-12-07 00:57:5043.4652-3.162681592223905Clb=4.3m/s t=-62.1C 401.50MHz Type=RS41-SG meteocampoo.es - http://radiosondy.info
EA1EF-14S50101912022-12-07 00:57:2843.4658-3.163341711723835Clb=3.8m/s t=-62.5C 401.50MHz Type=RS41-SG meteocampoo.es - http://radiosondy.info
EA4EKH-11S50101912022-12-07 00:57:2743.4659-3.163361501523830Clb=4.6m/s t=-62.2C h=1.3% p=-1.0hPa 401.501 MHz Type=RS41-SG ser=S5010191 Radiosonde
EA1EF-14S50101912022-12-07 00:57:0643.4662-3.164011322223765Clb=4.4m/s t=-62.9C 401.50MHz Type=RS41-SG meteocampoo.es - http://radiosondy.info
F4IKIS50101912022-12-07 00:56:4743.4667-3.164971181923701Clb=4.5m/s t=-63.3C h=1.4% p=-1.0hPa 401.501 MHz Type=RS41-SG ser=S5010191 Radiosonde
EA4EKH-11S50101912022-12-07 00:56:4643.4667-3.165031101723696Clb=4.3m/s t=-63.3C h=1.4% p=-1.0hPa 401.501 MHz Type=RS41-SG ser=S5010191 Radiosonde
EA1EF-14S50101912022-12-07 00:56:4543.4668-3.165031112023696Clb=4.3m/s t=-63.6C 401.50MHz Type=RS41-SG meteocampoo.es - http://radiosondy.info
EA1EF-14S50101912022-12-07 00:56:2343.4672-3.165951091723627Clb=3.8m/s t=-64.2C 401.50MHz Type=RS41-SG meteocampoo.es - http://radiosondy.info
F4IKIS50101912022-12-07 00:56:0543.4676-3.166571061323563Clb=4.5m/s t=-63.7C h=1.5% p=-1.0hPa 401.501 MHz Type=RS41-SG ser=S5010191 Radiosonde
EA4EKH-11S50101912022-12-07 00:56:0343.4676-3.1666101723559Clb=5.1m/s t=-63.7C h=1.4% p=-1.0hPa 401.501 MHz Type=RS41-SG ser=S5010191 Radiosonde
EA1EF-14S50101912022-12-07 00:56:0143.4676-3.16662100723554Clb=4.2m/s t=-63.9C 401.50MHz Type=RS41-SG meteocampoo.es - http://radiosondy.info
EA1EF-14S50101912022-12-07 00:55:3943.4678-3.16694135723481Clb=4.1m/s t=-63.9C 401.50MHz Type=RS41-SG meteocampoo.es - http://radiosondy.info
F4IKIS50101912022-12-07 00:55:2343.468-3.16704185923422Clb=4.6m/s t=-64.2C h=1.4% p=-1.0hPa 401.501 MHz Type=RS41-SG ser=S5010191 Radiosonde
EA4EKH-11S50101912022-12-07 00:55:2143.468-3.16704194923417Clb=5.3m/s t=-64.3C h=1.4% p=-1.0hPa 401.501 MHz Type=RS41-SG ser=S5010191 Radiosonde
EA1EF-14S50101912022-12-07 00:55:1843.468-3.16701226723407Clb=4.2m/s t=-64.8C 401.50MHz Type=RS41-SG meteocampoo.es - http://radiosondy.info
EA1EF-14S50101912022-12-07 00:54:5643.4682-3.166642131323334Clb=3.6m/s t=-64.3C 401.50MHz Type=RS41-SG meteocampoo.es - http://radiosondy.info
F4IKIS50101912022-12-07 00:54:4243.4685-3.166332041323277Clb=4.5m/s t=-63.5C h=1.4% p=-1.0hPa 401.501 MHz Type=RS41-SG ser=S5010191 Radiosonde
EA4EKH-11S50101912022-12-07 00:54:4143.4686-3.166312011323273Clb=3.8m/s t=-63.5C h=1.4% p=-1.0hPa 401.501 MHz Type=RS41-SG ser=S5010191 Radiosonde
EA1EF-14S50101912022-12-07 00:54:3643.4686-3.16625221923259Clb=4.4m/s t=-63.7C 401.50MHz Type=RS41-SG meteocampoo.es - http://radiosondy.info
EA1EF-14S50101912022-12-07 00:54:1443.469-3.16609188923186Clb=4.7m/s t=-63.5C 401.50MHz Type=RS41-SG meteocampoo.es - http://radiosondy.info
F4IKIS50101912022-12-07 00:53:5843.4692-3.1660861423135Clb=4.8m/s t=-63.1C h=1.4% p=-1.0hPa 401.501 MHz Type=RS41-SG ser=S5010191 Radiosonde
EA4EKH-11S50101912022-12-07 00:53:5743.4692-3.1660958623130Clb=4.3m/s t=-63.1C h=1.4% p=-1.0hPa 401.501 MHz Type=RS41-SG ser=S5010191 Radiosonde
EA1EF-14S50101912022-12-07 00:53:5043.4692-3.1662395923112Clb=4.7m/s t=-63.2C 401.50MHz Type=RS41-SG meteocampoo.es - http://radiosondy.info
EA1EF-14S50101912022-12-07 00:53:2843.4692-3.166611301123038Clb=4.2m/s t=-63.1C 401.50MHz Type=RS41-SG meteocampoo.es - http://radiosondy.info
F4IKIS50101912022-12-07 00:53:1543.4695-3.16669771322990Clb=4.3m/s t=-62.8C h=1.3% p=-1.0hPa 401.501 MHz Type=RS41-SG ser=S5010191 Radiosonde
EA4EKH-11S50101912022-12-07 00:53:1343.4695-3.16674711522986Clb=3.7m/s t=-62.8C h=1.4% p=-1.0hPa 401.501 MHz Type=RS41-SG ser=S5010191 Radiosonde
EA1EF-14S50101912022-12-07 00:53:0643.4694-3.1668760722964Clb=4.9m/s t=-63.1C 401.50MHz Type=RS41-SG meteocampoo.es - http://radiosondy.info
EA1EF-14S50101912022-12-07 00:52:4343.4697-3.16698163722890Clb=4.1m/s t=-63.3C 401.50MHz Type=RS41-SG meteocampoo.es - http://radiosondy.info
F4IKIS50101912022-12-07 00:52:3043.4698-3.1671219422849Clb=5.4m/s t=-62.9C h=1.3% p=-1.0hPa 401.501 MHz Type=RS41-SG ser=S5010191 Radiosonde
EA4EKH-11S50101912022-12-07 00:52:2843.4698-3.16708245622844Clb=5.2m/s t=-62.9C h=1.3% p=-1.0hPa 401.501 MHz Type=RS41-SG ser=S5010191 Radiosonde
EA1EF-14S50101912022-12-07 00:52:1743.4699-3.167051461522816Clb=4.4m/s t=-63.4C 401.50MHz Type=RS41-SG meteocampoo.es - http://radiosondy.info
EA1EF-14S50101912022-12-07 00:51:5343.4705-3.166991801722742Clb=5.1m/s t=-63.7C 401.50MHz Type=RS41-SG meteocampoo.es - http://radiosondy.info
EA4EKH-11S50101912022-12-07 00:51:4043.4709-3.16691941122697Clb=5.7m/s t=-63.6C h=1.4% p=-1.0hPa 401.501 MHz Type=RS41-SG ser=S5010191 Radiosonde
EA1EF-14S50101912022-12-07 00:51:2943.4712-3.166861821922662Clb=4.6m/s t=-63.8C 401.50MHz Type=RS41-SG meteocampoo.es - http://radiosondy.info
EA1EF-14S50101912022-12-07 00:51:0643.4718-3.166951621122584Clb=4.8m/s t=-63.6C 401.50MHz Type=RS41-SG meteocampoo.es - http://radiosondy.info
EA4EKH-11S50101912022-12-07 00:50:5443.472-3.166951771122547Clb=4.7m/s t=-63.0C h=1.4% p=-1.0hPa 401.501 MHz Type=RS41-SG ser=S5010191 Radiosonde
EA1EF-14S50101912022-12-07 00:50:4043.4723-3.167071681122507Clb=5.5m/s t=-63.0C 401.50MHz Type=RS41-SG meteocampoo.es - http://radiosondy.info
EA1EF-14S50101912022-12-07 00:50:1743.4726-3.16714112722433Clb=3.4m/s t=-63.1C 401.50MHz Type=RS41-SG meteocampoo.es - http://radiosondy.info
EA4EKH-11S50101912022-12-07 00:50:0843.4727-3.16711197622400Clb=3.6m/s t=-62.8C h=1.4% p=-1.0hPa 401.501 MHz Type=RS41-SG ser=S5010191 Radiosonde
EA1EF-14S50101912022-12-07 00:49:5243.4729-3.16723109922359Clb=5.2m/s t=-63.6C 401.50MHz Type=RS41-SG meteocampoo.es - http://radiosondy.info
EA1EF-14S50101912022-12-07 00:49:3143.4731-3.166931971322284Clb=5.5m/s t=-63.2C 401.50MHz Type=RS41-SG meteocampoo.es - http://radiosondy.info
EA4EKH-11S50101912022-12-07 00:49:2343.4733-3.166931871522256Clb=4.4m/s t=-62.8C h=1.4% p=-1.0hPa 401.501 MHz Type=RS41-SG ser=S5010191 Radiosonde
EA1EF-14S50101912022-12-07 00:49:0643.4736-3.166691881922210Clb=4.7m/s t=-62.8C 401.50MHz Type=RS41-SG meteocampoo.es - http://radiosondy.info
EA1EF-14S50101912022-12-07 00:48:4443.4743-3.166591702822134Clb=4.1m/s t=-62.8C 401.50MHz Type=RS41-SG meteocampoo.es - http://radiosondy.info
EA4EKH-11S50101912022-12-07 00:48:3643.4746-3.166571952822109Clb=3.8m/s t=-62.6C h=1.4% p=-1.0hPa 401.501 MHz Type=RS41-SG ser=S5010191 Radiosonde
EA1EF-14S50101912022-12-07 00:48:1943.4754-3.166431813322058Clb=5.0m/s t=-62.7C 401.50MHz Type=RS41-SG meteocampoo.es - http://radiosondy.info
EA1EF-14S50101912022-12-07 00:47:5643.4767-3.166211853121986Clb=3.8m/s t=-62.3C 401.50MHz Type=RS41-SG meteocampoo.es - http://radiosondy.info
EA4EKH-11S50101912022-12-07 00:47:5043.477-3.166151853121967Clb=4.2m/s t=-62.2C h=1.4% p=-1.0hPa 401.501 MHz Type=RS41-SG ser=S5010191 Radiosonde
EA1EF-14S50101912022-12-07 00:47:3143.4779-3.166241873021911Clb=3.9m/s t=-62.6C 401.50MHz Type=RS41-SG meteocampoo.es - http://radiosondy.info
F4IKIS50101912022-12-07 00:47:1143.4788-3.166511623021858Clb=4.7m/s t=-62.6C h=1.4% p=-1.0hPa 401.501 MHz Type=RS41-SG ser=S5010191 Radiosonde
EA1EF-14S50101912022-12-07 00:47:0543.479-3.166651583121839Clb=5.3m/s t=-62.9C 401.50MHz Type=RS41-SG meteocampoo.es - http://radiosondy.info
EA4EKH-11S50101912022-12-07 00:47:0043.4793-3.166771683321820Clb=4.5m/s t=-62.5C h=1.4% p=-1.0hPa 401.501 MHz Type=RS41-SG ser=S5010191 Radiosonde
EA1EF-14S50101912022-12-07 00:46:3943.4803-3.167031663321764Clb=4.1m/s t=-62.6C 401.50MHz Type=RS41-SG meteocampoo.es - http://radiosondy.info
EA1EF-14S50101912022-12-07 00:46:1543.4816-3.16731633321690Clb=3.9m/s t=-62.6C 401.50MHz Type=RS41-SG meteocampoo.es - http://radiosondy.info
EA4EKH-11S50101912022-12-07 00:46:1143.4819-3.167381723921676Clb=4.4m/s t=-62.3C h=1.4% p=-1.0hPa 401.501 MHz Type=RS41-SG ser=S5010191 Radiosonde
EA1EF-14S50101912022-12-07 00:45:5043.4829-3.167551772621616Clb=5.2m/s t=-62.8C 401.50MHz Type=RS41-SG meteocampoo.es - http://radiosondy.info
F4IKIS50101912022-12-07 00:45:3543.4839-3.167361962421547Clb=5.1m/s t=-62.7C h=1.4% p=-1.0hPa 401.501 MHz Type=RS41-SG ser=S5010191 Radiosonde
EA1EF-14S50101912022-12-07 00:45:2543.4839-3.167332002021542Clb=4.8m/s t=-63.1C 401.50MHz Type=RS41-SG meteocampoo.es - http://radiosondy.info
EA4EKH-11S50101912022-12-07 00:45:2343.4841-3.167252072621532Clb=5.3m/s t=-62.9C h=1.5% p=-1.0hPa 401.501 MHz Type=RS41-SG ser=S5010191 Radiosonde
EA1EF-14S50101912022-12-07 00:45:0243.4847-3.16682112421468Clb=4.1m/s t=-63.2C 401.50MHz Type=RS41-SG meteocampoo.es - http://radiosondy.info
F4IKIS50101912022-12-07 00:44:4943.4852-3.166382021921418Clb=4.6m/s t=-62.6C h=1.4% p=-1.0hPa 401.501 MHz Type=RS41-SG ser=S5010191 Radiosonde
EA1EF-14S50101912022-12-07 00:44:3843.4855-3.166222012221394Clb=4.2m/s t=-62.9C 401.50MHz Type=RS41-SG meteocampoo.es - http://radiosondy.info
EA4EKH-11S50101912022-12-07 00:44:3743.4856-3.166182033021390Clb=4.8m/s t=-62.6C h=1.4% p=-1.0hPa 401.501 MHz Type=RS41-SG ser=S5010191 Radiosonde
EA1EF-14S50101912022-12-07 00:44:1543.4863-3.165862022021321Clb=3.9m/s t=-62.9C 401.50MHz Type=RS41-SG meteocampoo.es - http://radiosondy.info
F4IKIS50101912022-12-07 00:44:0443.4867-3.165841491921280Clb=4.6m/s t=-62.4C h=1.6% p=-1.0hPa 401.501 MHz Type=RS41-SG ser=S5010191 Radiosonde
EA1EF-14S50101912022-12-07 00:43:5543.4871-3.165991812421249Clb=3.5m/s t=-62.6C 401.50MHz Type=RS41-SG meteocampoo.es - http://radiosondy.info
EA1EF-14S50101912022-12-07 00:43:3943.488-3.166271702621178Clb=4.7m/s t=-62.6C 401.50MHz Type=RS41-SG meteocampoo.es - http://radiosondy.info
F4IKIS50101912022-12-07 00:43:3243.4884-3.166581602621142Clb=4.0m/s t=-62.2C h=1.5% p=-1.0hPa 401.501 MHz Type=RS41-SG ser=S5010191 Radiosonde
EA4EKH-11S50101912022-12-07 00:43:2543.4889-3.166671723021113Clb=3.8m/s t=-62.1C h=1.5% p=-1.0hPa 401.501 MHz Type=RS41-SG ser=S5010191 Radiosonde
EA1EF-14S50101912022-12-07 00:43:2343.489-3.166691733021109Clb=4.8m/s t=-62.4C 401.50MHz Type=RS41-SG meteocampoo.es - http://radiosondy.info
EA1EF-14S50101912022-12-07 00:43:0743.4902-3.167041673121039Clb=4.5m/s t=-62.2C 401.50MHz Type=RS41-SG meteocampoo.es - http://radiosondy.info
F4IKIS50101912022-12-07 00:43:0143.4907-3.167131763321007Clb=4.4m/s t=-61.7C h=1.5% p=-1.0hPa 401.501 MHz Type=RS41-SG ser=S5010191 Radiosonde
EA4EKH-11S50101912022-12-07 00:42:5343.4912-3.167161823020975Clb=4.3m/s t=-61.9C h=1.3% p=-1.0hPa 401.501 MHz Type=RS41-SG ser=S5010191 Radiosonde
EA1EF-14S50101912022-12-07 00:42:5143.4914-3.167151813520967Clb=4.5m/s t=-62.2C 401.50MHz Type=RS41-SG meteocampoo.es - http://radiosondy.info
EA1EF-14S50101912022-12-07 00:42:3943.4928-3.167171743720898Clb=4.5m/s t=-62.4C 401.50MHz Type=RS41-SG meteocampoo.es - http://radiosondy.info
F4IKIS50101912022-12-07 00:42:3343.4934-3.167351733120867Clb=4.2m/s t=-61.9C h=1.5% p=-1.0hPa 401.501 MHz Type=RS41-SG ser=S5010191 Radiosonde
EA4EKH-11S50101912022-12-07 00:42:2543.494-3.167391773520843Clb=5.1m/s t=-61.7C h=1.3% p=-1.0hPa 401.501 MHz Type=RS41-SG ser=S5010191 Radiosonde
EA1EF-14S50101912022-12-07 00:42:2243.4942-3.167421733320830Clb=4.8m/s t=-62.0C 401.50MHz Type=RS41-SG meteocampoo.es - http://radiosondy.info
EA1EF-14S50101912022-12-07 00:42:0343.4955-3.167611752420761Clb=5.5m/s t=-61.8C 401.50MHz Type=RS41-SG meteocampoo.es - http://radiosondy.info
F4IKIS50101912022-12-07 00:41:5843.4959-3.16761882620733Clb=5.1m/s t=-61.5C h=1.4% p=-1.0hPa 401.501 MHz Type=RS41-SG ser=S5010191 Radiosonde
EA4EKH-11S50101912022-12-07 00:41:5743.4963-3.167581722020707Clb=4.0m/s t=-61.3C h=1.5% p=-1.0hPa 401.501 MHz Type=RS41-SG ser=S5010191 Radiosonde
EA1EF-14S50101912022-12-07 00:41:5643.4977-3.167961693520611Clb=3.9m/s t=-61.2C 401.50MHz Type=RS41-SG meteocampoo.es - http://radiosondy.info
F4IKIS50101912022-12-07 00:41:5543.4979-3.1681713120602Clb=3.8m/s t=-60.9C h=1.5% p=-1.0hPa 401.501 MHz Type=RS41-SG ser=S5010191 Radiosonde
EA1EF-14S50101912022-12-07 00:41:5143.5004-3.169211653520470Clb=4.6m/s t=-61.7C 401.50MHz Type=RS41-SG meteocampoo.es - http://radiosondy.info
F4IKIS50101912022-12-07 00:41:5043.5005-3.169241683520466Clb=4.5m/s t=-61.4C h=1.6% p=-1.0hPa 401.501 MHz Type=RS41-SG ser=S5010191 Radiosonde
EA4EKH-11S50101912022-12-07 00:41:4943.5011-3.169461493120435Clb=4.3m/s t=-61.8C h=1.6% p=-1.0hPa 401.501 MHz Type=RS41-SG ser=S5010191 Radiosonde
EA1EF-14S50101912022-12-07 00:41:4743.5017-3.169971592820401Clb=4.9m/s t=-62.2C 401.50MHz Type=RS41-SG meteocampoo.es - http://radiosondy.info
F4IKIS50101912022-12-07 00:41:4243.5025-3.170871401920332Clb=5.1m/s t=-62.7C h=1.6% p=-1.0hPa 401.501 MHz Type=RS41-SG ser=S5010191 Radiosonde
EA4EKH-11S50101912022-12-07 00:41:4043.5027-3.171241251920301Clb=4.3m/s t=-63.3C h=1.8% p=-1.0hPa 401.501 MHz Type=RS41-SG ser=S5010191 Radiosonde
EA1EF-14S50101912022-12-07 00:41:3843.5031-3.17181302620260Clb=4.1m/s t=-64.4C 401.50MHz Type=RS41-SG meteocampoo.es - http://radiosondy.info
EA1EF-14S50101912022-12-07 00:41:3443.5036-3.172991152420192Clb=4.3m/s t=-64.5C 401.50MHz Type=RS41-SG meteocampoo.es - http://radiosondy.info
EA4EKH-11S50101912022-12-07 00:41:3343.5037-3.173361131920164Clb=4.3m/s t=-64.1C h=2.0% p=-1.0hPa 401.501 MHz Type=RS41-SG ser=S5010191 Radiosonde
F4IKIS50101912022-12-07 00:41:3243.5045-3.175321112820056Clb=5.1m/s t=-63.8C h=1.6% p=-1.0hPa 401.501 MHz Type=RS41-SG ser=S5010191 Radiosonde
F4IKIS50101912022-12-07 00:41:3143.5057-3.177941072419912Clb=4.2m/s t=-63.4C h=-1.0% p=-1.0hPa 401.501 MHz Type=RS41-SG ser=S5010191 Radiosonde
EA1EF-14S50101912022-12-07 00:41:3043.5058-3.178371212819890Clb=5.3m/s t=-63.7C 401.50MHz Type=RS41-SG meteocampoo.es - http://radiosondy.info
EA1EF-14S50101912022-12-07 00:41:2943.5063-3.179741252419816Clb=4.7m/s t=-63.6C 401.50MHz Type=RS41-SG meteocampoo.es - http://radiosondy.info
EA1EF-14S50101912022-12-07 00:41:2843.5067-3.180951002019742Clb=4.6m/s t=-63.3C 401.50MHz Type=RS41-SG meteocampoo.es - http://radiosondy.info
EA1EF-14S50101912022-12-07 00:41:2743.5069-3.1821962019658Clb=4.7m/s t=-63.4C 401.50MHz Type=RS41-SG meteocampoo.es - http://radiosondy.info
EA4EKH-11S50101912022-12-07 00:41:2643.5068-3.18304941719595Clb=4.7m/s t=-63.1C h=1.7% p=-1.0hPa 401.501 MHz Type=RS41-SG ser=S5010191 Radiosonde
F4IKIS50101912022-12-07 00:41:2543.5072-3.18439931319482Clb=3.7m/s t=-63.2C h=-1.0% p=-1.0hPa 401.501 MHz Type=RS41-SG ser=S5010191 Radiosonde
EA1EF-14S50101912022-12-07 00:41:2443.5076-3.185371471319369Clb=4.0m/s t=-62.9C 401.50MHz Type=RS41-SG meteocampoo.es - http://radiosondy.info
F4IKIS50101912022-12-07 00:41:2343.5079-3.18581148619305Clb=4.0m/s t=-62.1C h=-1.0% p=-1.0hPa 401.501 MHz Type=RS41-SG ser=S5010191 Radiosonde
EA1EF-14S50101912022-12-07 00:41:2243.5083-3.18641291519225Clb=5.2m/s t=-62.1C 401.50MHz Type=RS41-SG meteocampoo.es - http://radiosondy.info
EA4EKH-11S50101912022-12-07 00:41:1643.5086-3.186941021519170Clb=4.4m/s t=-61.8C h=1.7% p=-1.0hPa 401.501 MHz Type=RS41-SG ser=S5010191 Radiosonde
EA1EF-14S50101912022-12-07 00:41:1243.5087-3.187131331719153Clb=3.9m/s t=-62.2C 401.50MHz Type=RS41-SG meteocampoo.es - http://radiosondy.info
EA1EF-14S50101912022-12-07 00:40:4943.5089-3.187931261919084Clb=3.8m/s t=-61.8C 401.50MHz Type=RS41-SG meteocampoo.es - http://radiosondy.info
EA4EKH-11S50101912022-12-07 00:40:3343.5091-3.188521101519035Clb=3.4m/s t=-61.5C h=1.6% p=-1.0hPa 401.501 MHz Type=RS41-SG ser=S5010191 Radiosonde
EA1EF-14S50101912022-12-07 00:40:2443.5093-3.188691441919014Clb=4.3m/s t=-61.6C 401.50MHz Type=RS41-SG meteocampoo.es - http://radiosondy.info
EA1EF-14S50101912022-12-07 00:39:5843.5097-3.189531212218944Clb=3.7m/s t=-61.5C 401.50MHz Type=RS41-SG meteocampoo.es - http://radiosondy.info
EA4EKH-11S50101912022-12-07 00:39:4543.51-3.190111222018900Clb=4.0m/s t=-61.3C h=1.8% p=-1.0hPa 401.501 MHz Type=RS41-SG ser=S5010191 Radiosonde
EA1EF-14S50101912022-12-07 00:39:3643.5103-3.190481392418875Clb=4.2m/s t=-61.8C 401.50MHz Type=RS41-SG meteocampoo.es - http://radiosondy.info
EA1EF-14S50101912022-12-07 00:39:1143.5106-3.191711122018807Clb=3.7m/s t=-61.9C 401.50MHz Type=RS41-SG meteocampoo.es - http://radiosondy.info
F4IKIS50101912022-12-07 00:39:0843.5107-3.19231951518768Clb=3.9m/s t=-61.5C h=-1.0% p=-1.0hPa 401.501 MHz Type=RS41-SG ser=S5010191 Radiosonde
EA4EKH-11S50101912022-12-07 00:38:5943.5107-3.19231951518768Clb=3.9m/s t=-61.5C h=1.7% p=-1.0hPa 401.501 MHz Type=RS41-SG ser=S5010191 Radiosonde
EA1EF-14S50101912022-12-07 00:38:4643.5107-3.19279851918739Clb=4.6m/s t=-62.0C 401.50MHz Type=RS41-SG meteocampoo.es - http://radiosondy.info
EA1EF-14S50101912022-12-07 00:38:2343.5106-3.19378651718669Clb=4.1m/s t=-62.0C 401.50MHz Type=RS41-SG meteocampoo.es - http://radiosondy.info
EA4EKH-11S50101912022-12-07 00:38:1043.5105-3.19417491918635Clb=4.0m/s t=-61.9C h=1.9% p=-1.0hPa 401.501 MHz Type=RS41-SG ser=S5010191 Radiosonde
EA1EF-14S50101912022-12-07 00:37:5643.5102-3.19452381518601Clb=3.8m/s t=-62.3C 401.50MHz Type=RS41-SG meteocampoo.es - http://radiosondy.info
EA1EF-14S50101912022-12-07 00:37:3143.5098-3.1949946718537Clb=4.0m/s t=-62.2C 401.50MHz Type=RS41-SG meteocampoo.es - http://radiosondy.info
EA4EKH-11S50101912022-12-07 00:37:1843.5098-3.19512104718502Clb=4.0m/s t=-61.7C h=1.9% p=-1.0hPa 401.501 MHz Type=RS41-SG ser=S5010191 Radiosonde
EA1EF-14S50101912022-12-07 00:37:0243.5098-3.19541871518467Clb=4.0m/s t=-61.8C 401.50MHz Type=RS41-SG meteocampoo.es - http://radiosondy.info
EA1EF-14S50101912022-12-07 00:36:3743.5098-3.1962771918396Clb=4.0m/s t=-61.3C 401.50MHz Type=RS41-SG meteocampoo.es - http://radiosondy.info
EA4EKH-11S50101912022-12-07 00:36:2643.5098-3.1966981918365Clb=5.0m/s t=-60.9C h=1.7% p=-1.0hPa 401.501 MHz Type=RS41-SG ser=S5010191 Radiosonde
EA1EF-14S50101912022-12-07 00:36:0943.5098-3.19722802418327Clb=4.6m/s t=-61.7C 401.50MHz Type=RS41-SG meteocampoo.es - http://radiosondy.info
EA1EF-14S50101912022-12-07 00:35:4543.51-3.19843992218259Clb=3.8m/s t=-61.8C 401.50MHz Type=RS41-SG meteocampoo.es - http://radiosondy.info
EA4EKH-11S50101912022-12-07 00:35:3743.5101-3.198861061918233Clb=4.6m/s t=-61.6C h=1.9% p=-1.0hPa 401.501 MHz Type=RS41-SG ser=S5010191 Radiosonde
EA1EF-14S50101912022-12-07 00:35:1843.5103-3.199591182218190Clb=4.0m/s t=-62.3C 401.50MHz Type=RS41-SG meteocampoo.es - http://radiosondy.info
F4IKIS50101912022-12-07 00:34:5843.5104-3.20063951718126Clb=4.5m/s t=-62.4C h=-1.0% p=-1.0hPa 401.501 MHz Type=RS41-SG ser=S5010191 Radiosonde
EA1EF-14S50101912022-12-07 00:34:5443.5104-3.200691021718121Clb=4.6m/s t=-62.7C 401.50MHz Type=RS41-SG meteocampoo.es - http://radiosondy.info
EA4EKH-11S50101912022-12-07 00:34:4843.5105-3.200991151918099Clb=5.1m/s t=-62.7C h=2.1% p=-1.0hPa 401.501 MHz Type=RS41-SG ser=S5010191 Radiosonde
EA1EF-14S50101912022-12-07 00:34:2943.5107-3.201511361718051Clb=4.9m/s t=-62.8C 401.50MHz Type=RS41-SG meteocampoo.es - http://radiosondy.info
EA1EF-14S50101912022-12-07 00:34:0343.5112-3.202131572617981Clb=3.7m/s t=-62.4C 401.50MHz Type=RS41-SG meteocampoo.es - http://radiosondy.info
EA4EKH-11S50101912022-12-07 00:33:5943.5114-3.202321322417965Clb=4.0m/s t=-62.0C h=1.9% p=-1.0hPa 401.501 MHz Type=RS41-SG ser=S5010191 Radiosonde
EA1EF-14S50101912022-12-07 00:33:3643.512-3.203111433017912Clb=4.3m/s t=-62.0C 401.50MHz Type=RS41-SG meteocampoo.es - http://radiosondy.info
F4IKIS50101912022-12-07 00:33:1643.5125-3.204021363117856Clb=4.1m/s t=-273.0C h=-1.0% p=-1.0hPa 401.501 MHz Type=RS41-SG ser=S5010191 Radiosonde
EA1EF-14S50101912022-12-07 00:33:0943.5128-3.204361283517840Clb=4.1m/s t=-61.8C 401.50MHz Type=RS41-SG meteocampoo.es - http://radiosondy.info
EA4EKH-11S50101912022-12-07 00:33:0443.5129-3.204671203117826Clb=4.8m/s t=-61.7C h=2.0% p=-1.0hPa 401.501 MHz Type=RS41-SG ser=S5010191 Radiosonde
EA1EF-14S50101912022-12-07 00:32:4043.5134-3.206071053517766Clb=4.7m/s t=-62.6C 401.50MHz Type=RS41-SG meteocampoo.es - http://radiosondy.info
F4IKIS50101912022-12-07 00:32:2043.5136-3.207451043917714Clb=4.0m/s t=-273.0C h=-1.0% p=-1.0hPa 401.501 MHz Type=RS41 ser=S5010191 Radiosonde
EA1EF-14S50101912022-12-07 00:32:1243.5137-3.207931013317698Clb=4.5m/s t=-62.7C 401.50MHz Type=RS41-SG meteocampoo.es - http://radiosondy.info
EA4EKH-11S50101912022-12-07 00:32:0743.5137-3.20815903017688Clb=4.4m/s t=-62.4C h=2.3% p=-1.0hPa 401.501 MHz Type=RS41-SG ser=S5010191 Radiosonde
EA1EF-14S50101912022-12-07 00:31:4143.5139-3.20972993317629Clb=4.1m/s t=-62.9C 401.50MHz Type=RS41-SG meteocampoo.es - http://radiosondy.info
EA1EF-14S50101912022-12-07 00:31:1443.514-3.21153903017562Clb=4.1m/s t=-62.7C 401.50MHz Type=RS41-SG meteocampoo.es - http://radiosondy.info
EA1EF-14S50101912022-12-07 00:30:4943.5139-3.21316943017494Clb=4.5m/s t=-62.7C 401.50MHz Type=RS41-SG meteocampoo.es - http://radiosondy.info
EA1EF-14S50101912022-12-07 00:30:2343.5137-3.21473892417427Clb=3.2m/s t=-62.3C 401.50MHz Type=RS41-SG meteocampoo.es - http://radiosondy.info
EA1EF-14S50101912022-12-07 00:29:5543.5136-3.21605802217363Clb=4.0m/s t=-61.8C 401.50MHz Type=RS41-SG meteocampoo.es - http://radiosondy.info
F4IKIS50101912022-12-07 00:29:4343.5135-3.21694681917318Clb=3.5m/s t=-61.2C h=2.1% p=-1.0hPa 401.501 MHz Type=RS41-SG ser=S5010191 Radiosonde
EA4EKH-11S50101912022-12-07 00:29:3143.5135-3.21719781917302Clb=4.6m/s t=-61.1C h=2.2% p=-1.0hPa 401.501 MHz Type=RS41-SG ser=S5010191 Radiosonde
EA1EF-14S50101912022-12-07 00:29:2943.5135-3.21726952017298Clb=4.0m/s t=-61.3C 401.50MHz Type=RS41-SG meteocampoo.es - http://radiosondy.info
EA1EF-14S50101912022-12-07 00:29:0243.5136-3.218381042017236Clb=3.2m/s t=-61.8C 401.50MHz Type=RS41-SG meteocampoo.es - http://radiosondy.info
F4IKIS50101912022-12-07 00:28:5143.5137-3.218991021717204Clb=4.2m/s t=-61.4C h=2.3% p=-1.0hPa 401.501 MHz Type=RS41-SG ser=S5010191 Radiosonde
EA4EKH-11S50101912022-12-07 00:28:3943.5138-3.219351021917180Clb=3.7m/s t=-61.6C h=2.3% p=-1.0hPa 401.501 MHz Type=RS41-SG ser=S5010191 Radiosonde
EA1EF-14S50101912022-12-07 00:28:3643.5138-3.219491012417172Clb=4.2m/s t=-62.0C 401.50MHz Type=RS41-SG meteocampoo.es - http://radiosondy.info
EA1EF-14S50101912022-12-07 00:28:0843.5138-3.22081692017110Clb=3.2m/s t=-62.6C 401.50MHz Type=RS41-SG meteocampoo.es - http://radiosondy.info
F4IKIS50101912022-12-07 00:28:0043.5136-3.22124622017083Clb=4.2m/s t=-62.5C h=2.6% p=-1.0hPa 401.501 MHz Type=RS41-SG ser=S5010191 Radiosonde
EA4EKH-11S50101912022-12-07 00:27:5443.5135-3.22165801917061Clb=4.0m/s t=-62.6C h=2.3% p=-1.0hPa 401.501 MHz Type=RS41-SG ser=S5010191 Radiosonde
EA1EF-14S50101912022-12-07 00:27:5043.5135-3.22184862817050Clb=4.5m/s t=-62.8C 401.50MHz Type=RS41-SG meteocampoo.es - http://radiosondy.info
EA1EF-14S50101912022-12-07 00:27:4343.5188-3.255431025916005Clb=5.0m/s t=-62.4C 401.50MHz Type=RS41-SG meteocampoo.es - http://radiosondy.info
F4IKIS50101912022-12-07 00:27:4243.5191-3.25803945615954Clb=3.5m/s t=-62.2C h=2.4% p=-1.0hPa 401.501 MHz Type=RS41-SG ser=S5010191 Radiosonde
EA1EF-14S50101912022-12-07 00:27:3943.5194-3.261541045215879Clb=4.0m/s t=-62.1C 401.50MHz Type=RS41-SG meteocampoo.es - http://radiosondy.info
F4IKIS50101912022-12-07 00:27:2543.5197-3.263631025015832Clb=3.6m/s t=-61.8C h=2.3% p=-1.0hPa 401.501 MHz Type=RS41-SG ser=S5010191 Radiosonde
EA1EF-14S50101912022-12-07 00:27:2043.5198-3.264271014615816Clb=4.8m/s t=-62.3C 401.50MHz Type=RS41-SG meteocampoo.es - http://radiosondy.info
EA4EKH-11S50101912022-12-07 00:27:1743.5199-3.26475974615804Clb=4.3m/s t=-62.3C h=2.4% p=-1.0hPa 401.501 MHz Type=RS41-SG ser=S5010191 Radiosonde
EA1EF-14S50101912022-12-07 00:27:0143.5201-3.26674913915752Clb=3.8m/s t=-63.3C 401.50MHz Type=RS41-SG meteocampoo.es - http://radiosondy.info
EA1EF-14S50101912022-12-07 00:27:0043.5204-3.26879953515690Clb=4.1m/s t=-63.0C 401.50MHz Type=RS41-SG meteocampoo.es - http://radiosondy.info
EA1EF-14S50101912022-12-07 00:26:5943.5205-3.270741003715626Clb=3.8m/s t=-62.7C 401.50MHz Type=RS41-SG meteocampoo.es - http://radiosondy.info
EA4EKH-11S50101912022-12-07 00:26:5843.5208-3.272941044115556Clb=5.1m/s t=-62.3C h=2.4% p=-1.0hPa 401.501 MHz Type=RS41-SG ser=S5010191 Radiosonde
EA4EKH-11S50101912022-12-07 00:26:5743.5213-3.27796934815417Clb=4.2m/s t=-61.6C h=2.3% p=-1.0hPa 401.501 MHz Type=RS41-SG ser=S5010191 Radiosonde
EA1EF-14S50101912022-12-07 00:26:5643.5213-3.27813965215413Clb=4.3m/s t=-61.9C 401.50MHz Type=RS41-SG meteocampoo.es - http://radiosondy.info
EA1EF-14S50101912022-12-07 00:26:4343.5216-3.28098915215344Clb=5.0m/s t=-61.6C 401.50MHz Type=RS41-SG meteocampoo.es - http://radiosondy.info
F4IKIS50101912022-12-07 00:26:3543.5216-3.28202965015317Clb=4.3m/s t=-61.1C h=2.3% p=-1.0hPa 401.501 MHz Type=RS41-SG ser=S5010191 Radiosonde
EA4EKH-11S50101912022-12-07 00:26:2343.5217-3.28344955015284Clb=3.8m/s t=-61.0C h=2.2% p=-1.0hPa 401.501 MHz Type=RS41-SG ser=S5010191 Radiosonde
EA1EF-14S50101912022-12-07 00:26:1743.5217-3.28379965415275Clb=3.9m/s t=-61.3C 401.50MHz Type=RS41-SG meteocampoo.es - http://radiosondy.info
EA1EF-14S50101912022-12-07 00:25:4943.5218-3.28672915715206Clb=4.2m/s t=-60.7C 401.50MHz Type=RS41-SG meteocampoo.es - http://radiosondy.info
F4IKIS50101912022-12-07 00:25:4143.5219-3.28791925615180Clb=4.9m/s t=-273.0C h=-1.0% p=-1.0hPa 401.501 MHz Type=RS41 ser=S5010191 Radiosonde
EA4EKH-11S50101912022-12-07 00:25:3143.5219-3.28905915415154Clb=4.4m/s t=-60.4C h=2.3% p=-1.0hPa 401.501 MHz Type=RS41-SG ser=S5010191 Radiosonde
EA1EF-14S50101912022-12-07 00:25:2443.5219-3.28985906115137Clb=4.0m/s t=-60.7C 401.50MHz Type=RS41-SG meteocampoo.es - http://radiosondy.info
EA1EF-14S50101912022-12-07 00:24:5743.5219-3.29322875615070Clb=4.3m/s t=-60.4C 401.50MHz Type=RS41-SG meteocampoo.es - http://radiosondy.info
F4IKIS50101912022-12-07 00:24:5043.5219-3.29399915615054Clb=4.2m/s t=-273.0C h=-1.0% p=-1.0hPa 401.501 MHz Type=RS41 ser=S5010191 Radiosonde
EA4EKH-11S50101912022-12-07 00:24:3843.5219-3.2953865415026Clb=4.5m/s t=-60.0C h=2.2% p=-1.0hPa 401.501 MHz Type=RS41-SG ser=S5010191 Radiosonde
EA1EF-14S50101912022-12-07 00:24:3043.5218-3.29625875715007Clb=4.2m/s t=-60.3C 401.50MHz Type=RS41-SG meteocampoo.es - http://radiosondy.info
EA1EF-14S50101912022-12-07 00:24:0143.5216-3.29934815414943Clb=3.9m/s t=-60.9C 401.50MHz Type=RS41-SG meteocampoo.es - http://radiosondy.info
F4IKIS50101912022-12-07 00:23:5643.5215-3.30007855214928Clb=3.7m/s t=-273.0C h=-1.0% p=-1.0hPa 401.501 MHz Type=RS41 ser=S5010191 Radiosonde
EA4EKH-11S50101912022-12-07 00:23:4443.5214-3.30134795014901Clb=2.9m/s t=-60.9C h=2.3% p=-1.0hPa 401.501 MHz Type=RS41-SG ser=S5010191 Radiosonde
EA1EF-14S50101912022-12-07 00:23:3443.5213-3.30221874614882Clb=4.2m/s t=-61.6C 401.50MHz Type=RS41-SG meteocampoo.es - http://radiosondy.info
EA1EF-14S50101912022-12-07 00:23:0543.521-3.30468854414819Clb=3.5m/s t=-61.3C 401.50MHz Type=RS41-SG meteocampoo.es - http://radiosondy.info
EA4EKH-11S50101912022-12-07 00:22:4843.5209-3.30603884614784Clb=3.7m/s t=-60.8C h=2.3% p=-1.0hPa 401.501 MHz Type=RS41-SG ser=S5010191 Radiosonde
EA1EF-14S50101912022-12-07 00:22:3543.5209-3.30712864314758Clb=3.8m/s t=-61.0C 401.50MHz Type=RS41-SG meteocampoo.es - http://radiosondy.info
EA1EF-14S50101912022-12-07 00:22:0943.5209-3.3094934614697Clb=4.0m/s t=-60.9C 401.50MHz Type=RS41-SG meteocampoo.es - http://radiosondy.info
EA4EKH-11S50101912022-12-07 00:21:5543.521-3.310681004614667Clb=4.7m/s t=-60.5C h=2.1% p=-1.0hPa 401.501 MHz Type=RS41-SG ser=S5010191 Radiosonde
EA1EF-14S50101912022-12-07 00:21:3743.5212-3.31225994814628Clb=4.0m/s t=-60.9C 401.50MHz Type=RS41-SG meteocampoo.es - http://radiosondy.info
EA1EF-14S50101912022-12-07 00:21:1143.5214-3.31484974814568Clb=3.9m/s t=-60.6C 401.50MHz Type=RS41-SG meteocampoo.es - http://radiosondy.info
EA4EKH-11S50101912022-12-07 00:21:0343.5215-3.315611024414549Clb=4.3m/s t=-60.3C h=2.1% p=-1.0hPa 401.501 MHz Type=RS41-SG ser=S5010191 Radiosonde
EA1EF-14S50101912022-12-07 00:20:4343.5218-3.317421055414506Clb=3.5m/s t=-60.5C 401.50MHz Type=RS41-SG meteocampoo.es - http://radiosondy.info
EA1EF-14S50101912022-12-07 00:20:1743.5221-3.320391045614444Clb=3.3m/s t=-60.3C 401.50MHz Type=RS41-SG meteocampoo.es - http://radiosondy.info
EA4EKH-11S50101912022-12-07 00:20:1143.5222-3.32148865214422Clb=4.6m/s t=-59.9C h=2.1% p=-1.0hPa 401.501 MHz Type=RS41-SG ser=S5010191 Radiosonde
EA1EF-14S50101912022-12-07 00:19:4843.5223-3.32337935214384Clb=3.0m/s t=-60.0C 401.50MHz Type=RS41-SG meteocampoo.es - http://radiosondy.info
EA1EF-14S50101912022-12-07 00:19:2343.5222-3.32621875214322Clb=4.7m/s t=-59.9C 401.50MHz Type=RS41-SG meteocampoo.es - http://radiosondy.info
EA4EKH-11S50101912022-12-07 00:19:1743.5221-3.32695845414307Clb=3.7m/s t=-59.7C h=1.9% p=-1.0hPa 401.501 MHz Type=RS41-SG ser=S5010191 Radiosonde
EA1EF-14S50101912022-12-07 00:18:5143.522-3.32945915014251Clb=4.7m/s t=-59.9C 401.50MHz Type=RS41-SG meteocampoo.es - http://radiosondy.info
EA1EF-14S50101912022-12-07 00:18:2443.522-3.33216955014186Clb=4.3m/s t=-59.4C 401.50MHz Type=RS41-SG meteocampoo.es - http://radiosondy.info
EA4EKH-11S50101912022-12-07 00:18:2343.522-3.33235905414183Clb=3.5m/s t=-59.1C h=1.8% p=-1.0hPa 401.501 MHz Type=RS41-SG ser=S5010191 Radiosonde
EA1EF-14S50101912022-12-07 00:17:5543.522-3.33492895014122Clb=4.2m/s t=-59.1C 401.50MHz Type=RS41-SG meteocampoo.es - http://radiosondy.info
EA1JAY-16S50101912022-12-07 00:17:2743.5222-3.33746945214059Clb=4.6m/s t=-58.8C h=2.0% 401.500MHz Type=RS41-SG rdzTTGOsonde
EA1EF-14S50101912022-12-07 00:16:5843.5222-3.34048885613989Clb=4.2m/s t=-59.1C 401.50MHz Type=RS41-SG meteocampoo.es - http://radiosondy.info
EA1JAY-16S50101912022-12-07 00:16:2843.5222-3.3435895413925Clb=4.7m/s t=-58.6C h=2.2% 401.500MHz Type=RS41-SG rdzTTGOsonde
EA1EF-14S50101912022-12-07 00:16:0243.5221-3.34642895413859Clb=3.7m/s t=-58.6C 401.50MHz Type=RS41-SG meteocampoo.es - http://radiosondy.info
EA1JAY-16S50101912022-12-07 00:15:5543.522-3.34714905413842Clb=4.0m/s t=-58.3C h=2.3% 401.500MHz Type=RS41-SG rdzTTGOsonde
EA4EKH-11S50101912022-12-07 00:15:4043.5221-3.34897935713801Clb=3.9m/s t=-58.1C h=2.2% p=-1.0hPa 401.501 MHz Type=RS41-SG ser=S5010191 Radiosonde
EA1EF-14S50101912022-12-07 00:15:3643.5221-3.34936945913793Clb=4.3m/s t=-58.4C 401.50MHz Type=RS41-SG meteocampoo.es - http://radiosondy.info
EA1JAY-16S50101912022-12-07 00:15:2143.5222-3.350931005913760Clb=4.1m/s t=-58.2C h=2.5% 401.500MHz Type=RS41-SG rdzTTGOsonde
EA1EF-14S50101912022-12-07 00:15:1043.5224-3.3526976113728Clb=3.8m/s t=-58.4C 401.50MHz Type=RS41-SG meteocampoo.es - http://radiosondy.info
EA4EKH-11S50101912022-12-07 00:14:4643.5227-3.35556946313671Clb=4.7m/s t=-58.2C h=2.4% p=-1.0hPa 401.501 MHz Type=RS41-SG ser=S5010191 Radiosonde
EA1JAY-16S50101912022-12-07 00:14:4343.5227-3.35556956513671Clb=4.7m/s t=-58.2C h=2.6% 401.500MHz Type=RS41-SG rdzTTGOsonde
EA1EF-14S50101912022-12-07 00:14:4243.5227-3.35598976913663Clb=3.0m/s t=-58.5C 401.50MHz Type=RS41-SG meteocampoo.es - http://radiosondy.info
EA1EF-14S50101912022-12-07 00:14:1443.5229-3.35978916713596Clb=4.7m/s t=-58.6C 401.50MHz Type=RS41-SG meteocampoo.es - http://radiosondy.info
EA1JAY-16S50101912022-12-07 00:14:1043.5229-3.36025916913587Clb=4.1m/s t=-58.2C h=2.7% 401.500MHz Type=RS41-SG rdzTTGOsonde
EA4EKH-11S50101912022-12-07 00:13:5443.5229-3.36256906713548Clb=4.6m/s t=-58.4C h=2.4% p=-1.0hPa 401.501 MHz Type=RS41-SG ser=S5010191 Radiosonde
EA1EF-14S50101912022-12-07 00:13:4743.5229-3.36349896513531Clb=3.5m/s t=-58.8C 401.50MHz Type=RS41-SG meteocampoo.es - http://radiosondy.info
EA1JAY-16S50101912022-12-07 00:13:3443.5229-3.36505896313504Clb=3.7m/s t=-58.8C h=2.8% 401.500MHz Type=RS41-SG rdzTTGOsonde
EA1EF-14S50101912022-12-07 00:13:2043.5228-3.36696895013468Clb=3.4m/s t=-59.3C 401.50MHz Type=RS41-SG meteocampoo.es - http://radiosondy.info
EA1JAY-16S50101912022-12-07 00:12:5943.5227-3.36906844813417Clb=3.7m/s t=-58.9C h=2.9% 401.500MHz Type=RS41-SG rdzTTGOsonde
EA1EF-14S50101912022-12-07 00:12:5343.5227-3.36971875213401Clb=4.4m/s t=-59.1C 401.50MHz Type=RS41-SG meteocampoo.es - http://radiosondy.info
EA4EKH-11S50101912022-12-07 00:12:3643.5223-3.37476845613294Clb=3.4m/s t=-58.3C h=2.7% p=-1.0hPa 401.501 MHz Type=RS41-SG ser=S5010191 Radiosonde
EA1EF-14S50101912022-12-07 00:12:2643.5222-3.37577865613274Clb=4.3m/s t=-58.5C 401.50MHz Type=RS41-SG meteocampoo.es - http://radiosondy.info
EA1JAY-16S50101912022-12-07 00:12:1443.5221-3.37671895413255Clb=4.0m/s t=-58.2C h=2.9% 401.500MHz Type=RS41-SG rdzTTGOsonde
EA1EF-14S50101912022-12-07 00:12:0043.5221-3.37861855013214Clb=3.8m/s t=-58.2C 401.50MHz Type=RS41-SG meteocampoo.es - http://radiosondy.info
EA1JAY-16S50101912022-12-07 00:11:5043.522-3.3803885413176Clb=3.1m/s t=-57.7C h=3.0% 401.500MHz Type=RS41-SG rdzTTGOsonde
EA1EF-14S50101912022-12-07 00:11:4543.522-3.38118865213157Clb=4.0m/s t=-57.9C 401.50MHz Type=RS41-SG meteocampoo.es - http://radiosondy.info
EA1EF-14S50101912022-12-07 00:11:3343.5219-3.38403915713097Clb=3.9m/s t=-57.7C 401.50MHz Type=RS41-SG meteocampoo.es - http://radiosondy.info
EA1JAY-16S50101912022-12-07 00:11:3243.5219-3.38403925913096Clb=3.9m/s t=-57.4C h=3.0% 401.500MHz Type=RS41-SG rdzTTGOsonde
EA4EKH-11S50101912022-12-07 00:11:2243.522-3.38602925713059Clb=4.3m/s t=-57.3C h=2.9% p=-1.0hPa 401.501 MHz Type=RS41-SG ser=S5010191 Radiosonde
EA1EF-14S50101912022-12-07 00:11:1543.522-3.38715935213037Clb=3.3m/s t=-57.6C 401.50MHz Type=RS41-SG meteocampoo.es - http://radiosondy.info
EA1JAY-16S50101912022-12-07 00:11:0743.5221-3.38825975213014Clb=4.6m/s t=-57.2C h=3.1% 401.500MHz Type=RS41-SG rdzTTGOsonde
EA1EF-14S50101912022-12-07 00:10:5743.5222-3.39001955712975Clb=3.9m/s t=-57.4C 401.50MHz Type=RS41-SG meteocampoo.es - http://radiosondy.info
EA4EKH-11S50101912022-12-07 00:10:5443.5222-3.39176935612940Clb=4.4m/s t=-57.1C h=3.0% p=-1.0hPa 401.501 MHz Type=RS41-SG ser=S5010191 Radiosonde
EA1JAY-16S50101912022-12-07 00:10:5343.5222-3.39215965712933Clb=3.5m/s t=-57.1C h=3.3% 401.500MHz Type=RS41-SG rdzTTGOsonde
EA1EF-14S50101912022-12-07 00:10:5243.5223-3.39313956112914Clb=3.9m/s t=-57.6C 401.50MHz Type=RS41-SG meteocampoo.es - http://radiosondy.info
EA1EF-14S50101912022-12-07 00:10:4643.5224-3.39653946312853Clb=4.2m/s t=-57.5C 401.50MHz Type=RS41-SG meteocampoo.es - http://radiosondy.info
EA4EKH-11S50101912022-12-07 00:10:4343.5224-3.39823865612825Clb=3.8m/s t=-57.2C h=3.4% p=-1.0hPa 401.501 MHz Type=RS41-SG ser=S5010191 Radiosonde
EA1EF-14S50101912022-12-07 00:10:4143.5224-3.39996876712796Clb=3.4m/s t=-57.5C 401.50MHz Type=RS41-SG meteocampoo.es - http://radiosondy.info
EA1JAY-16S50101912022-12-07 00:10:3443.5223-3.40112846512778Clb=2.9m/s t=-57.2C h=3.9% 401.500MHz Type=RS41-SG rdzTTGOsonde
EA1EF-14S50101912022-12-07 00:10:2443.5222-3.40364866312739Clb=3.2m/s t=-57.3C 401.50MHz Type=RS41-SG meteocampoo.es - http://radiosondy.info
EA4EKH-11S50101912022-12-07 00:10:1843.5221-3.40539856112709Clb=4.2m/s t=-57.6C h=4.1% p=-1.0hPa 401.501 MHz Type=RS41-SG ser=S5010191 Radiosonde
EA1JAY-16S50101912022-12-07 00:10:1543.5221-3.40581866312702Clb=3.9m/s t=-57.6C h=4.4% 401.500MHz Type=RS41-SG rdzTTGOsonde
EA1EF-14S50101912022-12-07 00:10:0843.522-3.40708795912679Clb=3.4m/s t=-58.0C 401.50MHz Type=RS41-SG meteocampoo.es - http://radiosondy.info
EA1JAY-16S50101912022-12-07 00:10:0143.5215-3.40984766112628Clb=4.1m/s t=-57.8C h=5.1% 401.500MHz Type=RS41-SG rdzTTGOsonde
EA4EKH-11S50101912022-12-07 00:10:0043.5212-3.41166736112596Clb=2.9m/s t=-57.7C h=5.0% p=-1.0hPa 401.501 MHz Type=RS41-SG ser=S5010191 Radiosonde
EA1EF-14S50101912022-12-07 00:09:5843.5209-3.41353766312564Clb=3.2m/s t=-58.1C 401.50MHz Type=RS41-SG meteocampoo.es - http://radiosondy.info
EA1JAY-16S50101912022-12-07 00:09:5743.5208-3.41416786312554Clb=2.8m/s t=-57.9C h=5.8% 401.500MHz Type=RS41-SG rdzTTGOsonde
EA1EF-14S50101912022-12-07 00:09:5443.5202-3.4169736312506Clb=4.3m/s t=-58.6C 401.50MHz Type=RS41-SG meteocampoo.es - http://radiosondy.info
EA4EKH-11S50101912022-12-07 00:09:5343.52-3.41811766112485Clb=3.2m/s t=-58.6C h=6.3% p=-1.0hPa 401.501 MHz Type=RS41-SG ser=S5010191 Radiosonde
EA1JAY-16S50101912022-12-07 00:09:5243.5199-3.41832796312482Clb=3.0m/s t=-58.6C h=6.7% 401.500MHz Type=RS41-SG rdzTTGOsonde
EA1EF-14S50101912022-12-07 00:09:4943.5196-3.42029796512450Clb=3.0m/s t=-59.3C 401.50MHz Type=RS41-SG meteocampoo.es - http://radiosondy.info
EA1JAY-16S50101912022-12-07 00:09:4843.5193-3.42268836912411Clb=4.1m/s t=-59.7C h=8.0% 401.500MHz Type=RS41-SG rdzTTGOsonde
EA1EF-14S50101912022-12-07 00:09:4743.5189-3.42705835912333Clb=4.2m/s t=-60.1C 401.50MHz Type=RS41-SG meteocampoo.es - http://radiosondy.info
EA1EF-14S50101912022-12-07 00:09:4643.5187-3.43071855712266Clb=4.1m/s t=-60.4C 401.50MHz Type=RS41-SG meteocampoo.es - http://radiosondy.info
EA1EF-14S50101912022-12-07 00:09:4543.5186-3.43392916112207Clb=3.2m/s t=-60.7C 401.50MHz Type=RS41-SG meteocampoo.es - http://radiosondy.info
EA1EF-14S50101912022-12-07 00:09:4443.5187-3.4371906712148Clb=4.3m/s t=-60.6C 401.50MHz Type=RS41-SG meteocampoo.es - http://radiosondy.info
EA1JAY-16S50101912022-12-07 00:09:4343.5187-3.44025937012095Clb=4.2m/s t=-60.4C h=12.9% 401.500MHz Type=RS41-SG rdzTTGOsonde
EA4EKH-11S50101912022-12-07 00:09:4243.519-3.44551947812012Clb=3.9m/s t=-60.5C h=14.3% p=-1.0hPa 401.501 MHz Type=RS41-SG ser=S5010191 Radiosonde
EA1JAY-16S50101912022-12-07 00:09:4143.519-3.45087887811933Clb=4.5m/s t=-60.2C h=16.0% 401.500MHz Type=RS41-SG rdzTTGOsonde
EA1JAY-16S50101912022-12-07 00:09:4043.5186-3.45643808111850Clb=4.4m/s t=-61.0C h=19.3% 401.500MHz Type=RS41-SG rdzTTGOsonde
EA1EF-14S50101912022-12-07 00:09:3843.5184-3.45753816711835Clb=4.1m/s t=-61.4C 401.50MHz Type=RS41-SG meteocampoo.es - http://radiosondy.info
EA1EF-14S50101912022-12-07 00:09:2143.5178-3.46104776111772Clb=3.6m/s t=-61.6C 401.50MHz Type=RS41-SG meteocampoo.es - http://radiosondy.info
EA1JAY-16S50101912022-12-07 00:09:1843.5178-3.46125776111768Clb=4.2m/s t=-61.4C h=21.6% 401.500MHz Type=RS41-SG rdzTTGOsonde
EA1EF-14S50101912022-12-07 00:08:5443.5174-3.46438806111711Clb=4.2m/s t=-62.0C 401.50MHz Type=RS41-SG meteocampoo.es - http://radiosondy.info
EA1JAY-16S50101912022-12-07 00:08:4443.5173-3.46563815611689Clb=3.8m/s t=-61.8C h=22.6% 401.500MHz Type=RS41-SG rdzTTGOsonde
EA4EKH-11S50101912022-12-07 00:08:3143.517-3.46748795911654Clb=3.8m/s t=-61.8C h=-1.0% p=-1.0hPa 401.501 MHz Type=RS41-SG ser=S5010191 Radiosonde
EA1EF-14S50101912022-12-07 00:08:2943.517-3.46768826111649Clb=4.2m/s t=-62.1C 401.50MHz Type=RS41-SG meteocampoo.es - http://radiosondy.info
EA1JAY-16S50101912022-12-07 00:08:1143.5167-3.46971806311614Clb=4.4m/s t=-61.9C h=21.9% 401.500MHz Type=RS41-SG rdzTTGOsonde
EA1EF-14S50101912022-12-07 00:08:0343.5165-3.47099825911592Clb=4.2m/s t=-62.2C 401.50MHz Type=RS41-SG meteocampoo.es - http://radiosondy.info
EA4EKH-11S50101912022-12-07 00:07:4243.5162-3.47399825611536Clb=3.6m/s t=-273.0C h=-1.0% p=-1.0hPa 401.501 MHz Type=RS41-SG ser=S5010191 Radiosonde
EA1JAY-16S50101912022-12-07 00:07:3843.5162-3.47399835711536Clb=3.6m/s t=-61.7C h=20.8% 401.500MHz Type=RS41-SG rdzTTGOsonde
EA1EF-14S50101912022-12-07 00:07:1243.516-3.47742916111476Clb=3.3m/s t=-61.9C 401.50MHz Type=RS41-SG meteocampoo.es - http://radiosondy.info
EA1JAY-16S50101912022-12-07 00:07:0343.516-3.47824885911462Clb=3.6m/s t=-61.5C h=20.7% 401.500MHz Type=RS41-SG rdzTTGOsonde
EA4EKH-11S50101912022-12-07 00:06:4943.5159-3.48014895711430Clb=3.0m/s t=-273.0C h=-1.0% p=-1.0hPa 401.501 MHz Type=RS41 ser=S5010191 Radiosonde
EA1EF-14S50101912022-12-07 00:06:4543.5159-3.48076926311419Clb=3.1m/s t=-61.7C 401.50MHz Type=RS41-SG meteocampoo.es - http://radiosondy.info
EA1JAY-16S50101912022-12-07 00:06:2843.5159-3.4831886311379Clb=4.0m/s t=-61.3C h=19.5% 401.500MHz Type=RS41-SG rdzTTGOsonde
EA1EF-14S50101912022-12-07 00:06:1643.5158-3.48423846711361Clb=3.1m/s t=-61.7C 401.50MHz Type=RS41-SG meteocampoo.es - http://radiosondy.info
EA4EKH-11S50101912022-12-07 00:05:5543.5157-3.48699876711316Clb=3.9m/s t=-273.0C h=-1.0% p=-1.0hPa 401.501 MHz Type=RS41 ser=S5010191 Radiosonde
EA1JAY-16S50101912022-12-07 00:05:5343.5157-3.48721886711312Clb=3.7m/s t=-61.5C h=20.6% 401.500MHz Type=RS41-SG rdzTTGOsonde
EA1EF-14S50101912022-12-07 00:05:4843.5157-3.48791886511302Clb=3.4m/s t=-61.8C 401.50MHz Type=RS41-SG meteocampoo.es - http://radiosondy.info
EA1EF-14S50101912022-12-07 00:05:2243.5156-3.49147896511242Clb=3.6m/s t=-61.5C 401.50MHz Type=RS41-SG meteocampoo.es - http://radiosondy.info
EA1JAY-16S50101912022-12-07 00:05:1843.5156-3.49193926711234Clb=3.3m/s t=-61.2C h=20.1% 401.500MHz Type=RS41-SG rdzTTGOsonde
EA1EF-14S50101912022-12-07 00:04:5443.5157-3.495956311183Clb=3.3m/s t=-61.2C 401.50MHz Type=RS41-SG meteocampoo.es - http://radiosondy.info
EA1JAY-16S50101912022-12-07 00:04:4443.5158-3.49627966111160Clb=3.5m/s t=-60.8C h=20.5% 401.500MHz Type=RS41-SG rdzTTGOsonde
EA1EF-14S50101912022-12-07 00:04:3043.5159-3.49845936311126Clb=4.0m/s t=-61.0C 401.50MHz Type=RS41-SG meteocampoo.es - http://radiosondy.info
EA1JAY-16S50101912022-12-07 00:04:1243.516-3.50062946311088Clb=3.9m/s t=-60.5C h=21.1% 401.500MHz Type=RS41-SG rdzTTGOsonde
EA1EF-14S50101912022-12-07 00:04:0343.5161-3.501881006111063Clb=3.7m/s t=-60.5C 401.50MHz Type=RS41-SG meteocampoo.es - http://radiosondy.info
EA1EF-14S50101912022-12-07 00:03:3843.5164-3.5052996111002Clb=4.4m/s t=-60.0C 401.50MHz Type=RS41-SG meteocampoo.es - http://radiosondy.info
EA1JAY-16S50101912022-12-07 00:03:3543.5164-3.505411006110998Clb=3.7m/s t=-59.7C h=21.2% 401.500MHz Type=RS41-SG rdzTTGOsonde
EA1EF-14S50101912022-12-07 00:03:1143.5167-3.50856976310941Clb=3.1m/s t=-59.8C 401.50MHz Type=RS41-SG meteocampoo.es - http://radiosondy.info
EA1JAY-16S50101912022-12-07 00:03:0143.5168-3.50988996310917Clb=3.5m/s t=-59.4C h=22.6% 401.500MHz Type=RS41-SG rdzTTGOsonde
EA1EF-14S50101912022-12-07 00:02:4743.517-3.51199916310880Clb=3.6m/s t=-59.5C 401.50MHz Type=RS41-SG meteocampoo.es - http://radiosondy.info
EA1JAY-16S50101912022-12-07 00:02:2343.5171-3.51477996310829Clb=3.8m/s t=-58.8C h=23.0% 401.500MHz Type=RS41-SG rdzTTGOsonde
EA1EF-14S50101912022-12-07 00:02:1943.5171-3.51544966510818Clb=4.2m/s t=-59.1C 401.50MHz Type=RS41-SG meteocampoo.es - http://radiosondy.info
EA1EF-14S50101912022-12-07 00:01:5143.5172-3.51897916710756Clb=3.9m/s t=-58.8C 401.50MHz Type=RS41-SG meteocampoo.es - http://radiosondy.info
EA1JAY-16S50101912022-12-07 00:01:4743.5172-3.51943886710749Clb=3.4m/s t=-58.5C h=23.3% 401.500MHz Type=RS41-SG rdzTTGOsonde
EA1EF-14S50101912022-12-07 00:01:2343.5173-3.52263926910696Clb=3.4m/s t=-58.6C 401.50MHz Type=RS41-SG meteocampoo.es - http://radiosondy.info
EA1JAY-16S50101912022-12-07 00:01:1243.5174-3.52401956910675Clb=3.6m/s t=-58.2C h=24.9% 401.500MHz Type=RS41-SG rdzTTGOsonde
EA1EF-14S50101912022-12-07 00:00:5743.5175-3.52634947010637Clb=3.8m/s t=-58.3C 401.50MHz Type=RS41-SG meteocampoo.es - http://radiosondy.info
EA1JAY-16S50101912022-12-07 00:00:3643.5176-3.52896947010594Clb=3.7m/s t=-57.8C h=26.7% 401.500MHz Type=RS41-SG rdzTTGOsonde
EA1EF-14S50101912022-12-07 00:00:2943.5177-3.53018957010575Clb=3.8m/s t=-58.0C 401.50MHz Type=RS41-SG meteocampoo.es - http://radiosondy.info
EA1EF-14S50101912022-12-07 00:00:0143.5177-3.53402916510517Clb=3.7m/s t=-57.8C 401.50MHz Type=RS41-SG meteocampoo.es - http://radiosondy.info
EA1JAY-16S50101912022-12-07 00:00:0043.5177-3.53402926910517Clb=3.8m/s t=-57.5C h=25.5% 401.500MHz Type=RS41-SG rdzTTGOsonde
EA1EF-14S50101912022-12-06 23:59:4643.5176-3.53753896310456Clb=3.2m/s t=-57.3C 401.50MHz Type=RS41-SG meteocampoo.es - http://radiosondy.info
EA1JAY-16S50101912022-12-06 23:59:4043.5176-3.5386906510437Clb=4.0m/s t=-56.8C h=22.2% 401.500MHz Type=RS41-SG rdzTTGOsonde
EA1EF-14S50101912022-12-06 23:59:3943.5176-3.541936510396Clb=3.8m/s t=-56.8C 401.50MHz Type=RS41-SG meteocampoo.es - http://radiosondy.info
EA1JAY-16S50101912022-12-06 23:59:3843.5176-3.54432946510339Clb=4.2m/s t=-56.1C h=20.5% 401.500MHz Type=RS41-SG rdzTTGOsonde
EA1EF-14S50101912022-12-06 23:59:3743.5176-3.54869936310269Clb=3.7m/s t=-55.9C 401.50MHz Type=RS41-SG meteocampoo.es - http://radiosondy.info
EA1EF-14S50101912022-12-06 23:59:3643.5177-3.55388935910182Clb=2.4m/s t=-55.5C 401.50MHz Type=RS41-SG meteocampoo.es - http://radiosondy.info
EA1EF-14S50101912022-12-06 23:59:3543.5176-3.55711865710124Clb=4.2m/s t=-55.1C 401.50MHz Type=RS41-SG meteocampoo.es - http://radiosondy.info
EA1JAY-16S50101912022-12-06 23:59:3443.5175-3.55832855910103Clb=3.4m/s t=-54.7C h=21.9% 401.500MHz Type=RS41-SG rdzTTGOsonde
EA1EF-14S50101912022-12-06 23:59:3143.5175-3.56021915610065Clb=3.0m/s t=-54.7C 401.50MHz Type=RS41-SG meteocampoo.es - http://radiosondy.info
EA1JAY-16S50101912022-12-06 23:59:3043.5175-3.56234925910027Clb=3.3m/s t=-54.2C h=25.0% 401.500MHz Type=RS41-SG rdzTTGOsonde
EA1JAY-16S50101912022-12-06 23:59:1143.5174-3.5667589579946Clb=3.3m/s t=-53.8C h=31.9% 401.500MHz Type=RS41-SG rdzTTGOsonde
EA1EF-14S50101912022-12-06 23:59:0143.5173-3.5691286549900Clb=4.2m/s t=-53.7C 401.50MHz Type=RS41-SG meteocampoo.es - http://radiosondy.info
EA1EF-14S50101912022-12-06 23:59:0043.517-3.5727583529827Clb=3.3m/s t=-53.0C 401.50MHz Type=RS41-SG meteocampoo.es - http://radiosondy.info
EA1JAY-16S50101912022-12-06 23:58:5943.5169-3.5743582549794Clb=3.1m/s t=-52.5C h=28.9% 401.500MHz Type=RS41-SG rdzTTGOsonde
EA1JAY-16S50101912022-12-06 23:58:5843.5165-3.5780185569719Clb=3.3m/s t=-51.8C h=28.4% 401.500MHz Type=RS41-SG rdzTTGOsonde
EA1EF-14S50101912022-12-06 23:58:5743.5165-3.5788682509699Clb=3.7m/s t=-52.0C 401.50MHz Type=RS41-SG meteocampoo.es - http://radiosondy.info
EA1EF-14S50101912022-12-06 23:58:4143.5162-3.5815581489644Clb=3.5m/s t=-51.5C 401.50MHz Type=RS41-SG meteocampoo.es - http://radiosondy.info
EA1JAY-16S50101912022-12-06 23:58:3343.5162-3.582284509628Clb=3.3m/s t=-51.1C h=31.2% 401.500MHz Type=RS41-SG rdzTTGOsonde
EA1EF-14S50101912022-12-06 23:58:1443.5161-3.5841986469585Clb=4.2m/s t=-51.0C 401.50MHz Type=RS41-SG meteocampoo.es - http://radiosondy.info
EA1JAY-16S50101912022-12-06 23:57:5643.516-3.585885449548Clb=3.7m/s t=-50.4C h=27.4% 401.500MHz Type=RS41-SG rdzTTGOsonde
EA1EF-14S50101912022-12-06 23:57:4443.5159-3.5870786469518Clb=2.6m/s t=-50.4C 401.50MHz Type=RS41-SG meteocampoo.es - http://radiosondy.info
EA1JAY-16S50101912022-12-06 23:57:1943.5158-3.5890687449472Clb=4.3m/s t=-49.7C h=25.3% 401.500MHz Type=RS41-SG rdzTTGOsonde
EA1JAY-16S50101912022-12-06 23:56:4443.5157-3.5922390489400Clb=3.7m/s t=-49.2C h=24.5% 401.500MHz Type=RS41-SG rdzTTGOsonde
EA1EF-14S50101912022-12-06 23:56:3943.5157-3.5928788489385Clb=3.2m/s t=-49.4C 401.50MHz Type=RS41-SG meteocampoo.es - http://radiosondy.info
EA1EF-14S50101912022-12-06 23:56:1043.5155-3.5955682449325Clb=3.0m/s t=-48.9C 401.50MHz Type=RS41-SG meteocampoo.es - http://radiosondy.info
EA1JAY-16S50101912022-12-06 23:56:0943.5155-3.5955682449325Clb=3.0m/s t=-48.6C h=23.8% 401.500MHz Type=RS41-SG rdzTTGOsonde
EA1EF-14S50101912022-12-06 23:55:4143.5152-3.5982778449262Clb=3.8m/s t=-48.5C 401.50MHz Type=RS41-SG meteocampoo.es - http://radiosondy.info
EA1JAY-16S50101912022-12-06 23:55:3743.5152-3.5985882469254Clb=3.4m/s t=-48.1C h=23.4% 401.500MHz Type=RS41-SG rdzTTGOsonde
EA1EF-14S50101912022-12-06 23:55:1643.5149-3.6007380489204Clb=3.7m/s t=-48.2C 401.50MHz Type=RS41-SG meteocampoo.es - http://radiosondy.info
EA1JAY-16S50101912022-12-06 23:55:0443.5148-3.6016977489182Clb=3.9m/s t=-47.8C h=25.4% 401.500MHz Type=RS41-SG rdzTTGOsonde
EA1EF-14S50101912022-12-06 23:54:5043.5145-3.6033379489147Clb=3.6m/s t=-47.9C 401.50MHz Type=RS41-SG meteocampoo.es - http://radiosondy.info
EA1JAY-16S50101912022-12-06 23:54:3143.5141-3.6052880489103Clb=4.1m/s t=-47.4C h=30.5% 401.500MHz Type=RS41-SG rdzTTGOsonde
EA1EF-14S50101912022-12-06 23:54:2543.514-3.6059380469089Clb=3.7m/s t=-47.6C 401.50MHz Type=RS41-SG meteocampoo.es - http://radiosondy.info
EA1JAY-16S50101912022-12-06 23:53:5943.5136-3.6084379489033Clb=3.4m/s t=-46.9C h=30.9% 401.500MHz Type=RS41-SG rdzTTGOsonde
EA1EF-14S50101912022-12-06 23:53:3443.5132-3.6109782468977Clb=3.6m/s t=-46.7C 401.50MHz Type=RS41-SG meteocampoo.es - http://radiosondy.info
EA1JAY-16S50101912022-12-06 23:53:2543.5131-3.6117674468960Clb=3.8m/s t=-46.3C h=30.4% 401.500MHz Type=RS41-SG rdzTTGOsonde
EA1EF-14S50101912022-12-06 23:53:0943.5128-3.6134575468921Clb=3.9m/s t=-46.3C 401.50MHz Type=RS41-SG meteocampoo.es - http://radiosondy.info
EA1JAY-16S50101912022-12-06 23:52:5343.5125-3.6148579468889Clb=4.2m/s t=-45.8C h=30.6% 401.500MHz Type=RS41-SG rdzTTGOsonde
EA1EF-14S50101912022-12-06 23:52:4243.5124-3.6159576468864Clb=3.1m/s t=-45.9C 401.50MHz Type=RS41-SG meteocampoo.es - http://radiosondy.info
EA1JAY-16S50101912022-12-06 23:52:1743.512-3.6181282468812Clb=4.1m/s t=-45.2C h=23.5% 401.500MHz Type=RS41-SG rdzTTGOsonde
EA1EF-14S50101912022-12-06 23:52:1443.5119-3.6184378468805Clb=4.0m/s t=-45.5C 401.50MHz Type=RS41-SG meteocampoo.es - http://radiosondy.info
EA1EF-14S50101912022-12-06 23:51:5343.5116-3.6209679468749Clb=3.7m/s t=-45.0C 401.50MHz Type=RS41-SG meteocampoo.es - http://radiosondy.info
EA1JAY-16S50101912022-12-06 23:51:3743.5112-3.6232982488694Clb=2.9m/s t=-44.3C h=20.9% 401.500MHz Type=RS41-SG rdzTTGOsonde
EA1EF-14S50101912022-12-06 23:51:2743.5109-3.6259279468633Clb=3.8m/s t=-44.0C 401.50MHz Type=RS41-SG meteocampoo.es - http://radiosondy.info
EA1EF-14S50101912022-12-06 23:51:2643.5106-3.628483488580Clb=2.9m/s t=-43.6C 401.50MHz Type=RS41-SG meteocampoo.es - http://radiosondy.info
EA1EF-14S50101912022-12-06 23:51:1243.5103-3.63180488523Clb=3.1m/s t=-43.1C 401.50MHz Type=RS41-SG meteocampoo.es - http://radiosondy.info
EA1JAY-16S50101912022-12-06 23:51:0943.5103-3.6313284468515Clb=3.8m/s t=-42.8C h=18.7% 401.500MHz Type=RS41-SG rdzTTGOsonde
EA1EF-14S50101912022-12-06 23:51:0143.5101-3.6336180468466Clb=3.5m/s t=-42.6C 401.50MHz Type=RS41-SG meteocampoo.es - http://radiosondy.info
EA1JAY-16S50101912022-12-06 23:50:5743.51-3.6345884468444Clb=4.2m/s t=-42.2C h=18.7% 401.500MHz Type=RS41-SG rdzTTGOsonde
EA1EF-14S50101912022-12-06 23:50:5643.5097-3.6364674468402Clb=3.8m/s t=-42.0C 401.50MHz Type=RS41-SG meteocampoo.es - http://radiosondy.info
EA1JAY-16S50101912022-12-06 23:50:5543.5091-3.6408778468303Clb=3.6m/s t=-40.9C h=17.7% 401.500MHz Type=RS41-SG rdzTTGOsonde
EA1EF-14S50101912022-12-06 23:50:5443.5086-3.6439277448232Clb=4.2m/s t=-40.5C 401.50MHz Type=RS41-SG meteocampoo.es - http://radiosondy.info
EA1EF-14S50101912022-12-06 23:50:5343.5082-3.6463477468173Clb=2.9m/s t=-40.0C 401.50MHz Type=RS41-SG meteocampoo.es - http://radiosondy.info
EA1EF-14S50101912022-12-06 23:50:5243.5078-3.6488682488115Clb=3.7m/s t=-39.5C 401.50MHz Type=RS41-SG meteocampoo.es - http://radiosondy.info
EA1EF-14S50101912022-12-06 23:50:5143.5075-3.6514480488057Clb=3.3m/s t=-39.0C 401.50MHz Type=RS41-SG meteocampoo.es - http://radiosondy.info
EA1JAY-16S50101912022-12-06 23:50:4043.5072-3.6538981488002Clb=3.7m/s t=-38.2C h=13.8% 401.500MHz Type=RS41-SG rdzTTGOsonde
EA1EF-14S50101912022-12-06 23:50:1943.5068-3.6569879487935Clb=3.5m/s t=-37.8C 401.50MHz Type=RS41-SG meteocampoo.es - http://radiosondy.info
EA1JAY-16S50101912022-12-06 23:50:0943.5067-3.657880507918Clb=3.4m/s t=-37.4C h=12.3% 401.500MHz Type=RS41-SG rdzTTGOsonde
EA1EF-14S50101912022-12-06 23:49:5343.5065-3.6595881507878Clb=3.9m/s t=-37.2C 401.50MHz Type=RS41-SG meteocampoo.es - http://radiosondy.info
EA1JAY-16S50101912022-12-06 23:49:3643.5063-3.6612782527842Clb=4.1m/s t=-36.6C h=11.2% 401.500MHz Type=RS41-SG rdzTTGOsonde
EA1EF-14S50101912022-12-06 23:49:3143.5062-3.6621280507822Clb=3.4m/s t=-36.7C 401.50MHz Type=RS41-SG meteocampoo.es - http://radiosondy.info
EA1JAY-16S50101912022-12-06 23:49:0543.5059-3.6646576507766Clb=3.4m/s t=-36.0C h=10.9% 401.500MHz Type=RS41-SG rdzTTGOsonde
EA1EF-14S50101912022-12-06 23:49:0443.5058-3.6648176507762Clb=2.6m/s t=-36.2C 401.50MHz Type=RS41-SG meteocampoo.es - http://radiosondy.info
EA1JAY-16S50101912022-12-06 23:48:3243.5053-3.6681575507693Clb=3.2m/s t=-35.5C h=10.9% 401.500MHz Type=RS41-SG rdzTTGOsonde
EA1EF-14S50101912022-12-06 23:48:2343.5051-3.6692978487668Clb=2.7m/s t=-35.6C 401.50MHz Type=RS41-SG meteocampoo.es - http://radiosondy.info
EA1JAY-16S50101912022-12-06 23:48:0243.5046-3.6714873487619Clb=3.7m/s t=-34.9C h=9.5% 401.500MHz Type=RS41-SG rdzTTGOsonde
EA1EF-14S50101912022-12-06 23:48:0043.5045-3.671874487613Clb=3.4m/s t=-35.1C 401.50MHz Type=RS41-SG meteocampoo.es - http://radiosondy.info
EA1JAY-16S50101912022-12-06 23:47:3343.504-3.6748482437547Clb=3.5m/s t=-34.2C h=9.1% 401.500MHz Type=RS41-SG rdzTTGOsonde
EA1EF-14S50101912022-12-06 23:47:0543.5035-3.6775483467490Clb=3.6m/s t=-34.0C 401.50MHz Type=RS41-SG meteocampoo.es - http://radiosondy.info
EA1JAY-16S50101912022-12-06 23:46:5743.5035-3.6781682487476Clb=3.8m/s t=-33.7C h=8.2% 401.500MHz Type=RS41-SG rdzTTGOsonde
EA1EF-14S50101912022-12-06 23:46:3943.5032-3.6800478437434Clb=4.0m/s t=-33.7C 401.50MHz Type=RS41-SG meteocampoo.es - http://radiosondy.info
EA1JAY-16S50101912022-12-06 23:46:2343.503-3.6813677437402Clb=2.9m/s t=-33.2C h=8.5% 401.500MHz Type=RS41-SG rdzTTGOsonde
EA1EF-14S50101912022-12-06 23:46:1343.5028-3.6823278397378Clb=3.2m/s t=-33.3C 401.50MHz Type=RS41-SG meteocampoo.es - http://radiosondy.info
EA1JAY-16S50101912022-12-06 23:45:5143.5025-3.6840275397334Clb=3.0m/s t=-32.7C h=8.8% 401.500MHz Type=RS41-SG rdzTTGOsonde
EA1EF-14S50101912022-12-06 23:45:4943.5025-3.684476377324Clb=3.6m/s t=-32.9C 401.50MHz Type=RS41-SG meteocampoo.es - http://radiosondy.info
EA1EF-14S50101912022-12-06 23:45:2243.5022-3.6863679357269Clb=3.2m/s t=-32.6C 401.50MHz Type=RS41-SG meteocampoo.es - http://radiosondy.info
EA1JAY-16S50101912022-12-06 23:45:1843.5021-3.6866182377262Clb=3.2m/s t=-32.3C h=10.3% 401.500MHz Type=RS41-SG rdzTTGOsonde
EA1EF-14S50101912022-12-06 23:44:5843.5019-3.6882487357214Clb=3.0m/s t=-32.2C 401.50MHz Type=RS41-SG meteocampoo.es - http://radiosondy.info
EA1JAY-16S50101912022-12-06 23:44:4943.5019-3.6890185357193Clb=3.1m/s t=-31.7C h=10.2% 401.500MHz Type=RS41-SG rdzTTGOsonde
EA1EF-14S50101912022-12-06 23:44:3543.5018-3.6901788337159Clb=3.7m/s t=-31.7C 401.50MHz Type=RS41-SG meteocampoo.es - http://radiosondy.info
EA1JAY-16S50101912022-12-06 23:44:1743.5018-3.6913989357126Clb=2.8m/s t=-31.2C h=10.2% 401.500MHz Type=RS41-SG rdzTTGOsonde
EA1EF-14S50101912022-12-06 23:44:1043.5018-3.6920690317107Clb=3.7m/s t=-31.3C 401.50MHz Type=RS41-SG meteocampoo.es - http://radiosondy.info
EA1JAY-16S50101912022-12-06 23:43:5143.5017-3.6937191357056Clb=3.5m/s t=-30.7C h=11.9% 401.500MHz Type=RS41-SG rdzTTGOsonde
EA1EF-14S50101912022-12-06 23:43:3543.5017-3.6955991317000Clb=2.8m/s t=-30.8C 401.50MHz Type=RS41-SG meteocampoo.es - http://radiosondy.info
EA1JAY-16S50101912022-12-06 23:43:3143.5017-3.6960390336985Clb=3.9m/s t=-30.5C h=16.1% 401.500MHz Type=RS41-SG rdzTTGOsonde
EA1EF-14S50101912022-12-06 23:43:2943.5018-3.6972999336944Clb=3.7m/s t=-30.7C 401.50MHz Type=RS41-SG meteocampoo.es - http://radiosondy.info
EA1JAY-16S50101912022-12-06 23:43:2643.5019-3.6982597356915Clb=4.2m/s t=-30.2C h=18.8% 401.500MHz Type=RS41-SG rdzTTGOsonde
EA1EF-14S50101912022-12-06 23:43:2243.502-3.6991198356892Clb=3.4m/s t=-30.3C 401.50MHz Type=RS41-SG meteocampoo.es - http://radiosondy.info
EA1JAY-16S50101912022-12-06 23:43:0843.502-3.7007991356839Clb=4.4m/s t=-29.6C h=15.0% 401.500MHz Type=RS41-SG rdzTTGOsonde
EA1EF-14S50101912022-12-06 23:43:0643.502-3.7011888396828Clb=3.7m/s t=-29.7C 401.50MHz Type=RS41-SG meteocampoo.es - http://radiosondy.info
EA1JAY-16S50101912022-12-06 23:43:0043.5019-3.7034686436770Clb=3.2m/s t=-28.9C h=13.8% 401.500MHz Type=RS41-SG rdzTTGOsonde
EA1JAY-16S50101912022-12-06 23:42:5943.5019-3.706391396699Clb=2.8m/s t=-28.3C h=13.8% 401.500MHz Type=RS41-SG rdzTTGOsonde
EA1EF-14S50101912022-12-06 23:42:5443.5019-3.7076485396665Clb=3.8m/s t=-28.2C 401.50MHz Type=RS41-SG meteocampoo.es - http://radiosondy.info
EA1JAY-16S50101912022-12-06 23:42:4143.5019-3.7091394376627Clb=2.7m/s t=-27.6C h=12.3% 401.500MHz Type=RS41-SG rdzTTGOsonde
EA1JAY-16S50101912022-12-06 23:42:0843.5019-3.7117495396560Clb=2.9m/s t=-26.9C h=9.4% 401.500MHz Type=RS41-SG rdzTTGOsonde
EA1EF-14S50101912022-12-06 23:42:0043.502-3.7125291376539Clb=3.2m/s t=-27.0C 401.50MHz Type=RS41-SG meteocampoo.es - http://radiosondy.info
EA1JAY-16S50101912022-12-06 23:41:3843.502-3.7143393356491Clb=3.9m/s t=-26.6C h=9.0% 401.500MHz Type=RS41-SG rdzTTGOsonde
EA1EF-14S50101912022-12-06 23:41:3643.502-3.7145794356484Clb=3.6m/s t=-26.9C 401.50MHz Type=RS41-SG meteocampoo.es - http://radiosondy.info
EA1EF-14S50101912022-12-06 23:41:1243.5019-3.7165593376429Clb=3.4m/s t=-26.5C 401.50MHz Type=RS41-SG meteocampoo.es - http://radiosondy.info
EA1JAY-16S50101912022-12-06 23:41:0743.5019-3.7168293396422Clb=3.1m/s t=-26.2C h=12.3% 401.500MHz Type=RS41-SG rdzTTGOsonde
EA1JAY-16S50101912022-12-06 23:40:3643.5018-3.7194883356350Clb=3.9m/s t=-25.5C h=11.6% 401.500MHz Type=RS41-SG rdzTTGOsonde
EA1EF-14S50101912022-12-06 23:40:3543.5018-3.719682376347Clb=2.8m/s t=-25.8C 401.50MHz Type=RS41-SG meteocampoo.es - http://radiosondy.info
EA1JAY-16S50101912022-12-06 23:40:0543.5017-3.7220192336278Clb=3.4m/s t=-25.0C h=7.1% 401.500MHz Type=RS41-SG rdzTTGOsonde
EA1JAY-16S50101912022-12-06 23:39:4443.5016-3.7244585356212Clb=3.9m/s t=-24.5C h=8.1% 401.500MHz Type=RS41-SG rdzTTGOsonde
EA1EF-14S50101912022-12-06 23:39:2643.5014-3.7268285376145Clb=4.0m/s t=-24.2C 401.50MHz Type=RS41-SG meteocampoo.es - http://radiosondy.info
EA1JAY-16S50101912022-12-06 23:39:2443.5014-3.7269585356142Clb=2.9m/s t=-23.9C h=8.4% 401.500MHz Type=RS41-SG rdzTTGOsonde
EA1EF-14S50101912022-12-06 23:39:0943.5013-3.7290980376082Clb=2.9m/s t=-23.7C 401.50MHz Type=RS41-SG meteocampoo.es - http://radiosondy.info
EA1JAY-16S50101912022-12-06 23:39:0443.5012-3.729690376068Clb=3.1m/s t=-23.3C h=7.8% 401.500MHz Type=RS41-SG rdzTTGOsonde
EA1JAY-16S50101912022-12-06 23:38:4343.5011-3.7321388355999Clb=2.8m/s t=-22.8C h=8.8% 401.500MHz Type=RS41-SG rdzTTGOsonde
EA1EF-14S50101912022-12-06 23:38:3143.501-3.7337987355955Clb=3.2m/s t=-22.7C 401.50MHz Type=RS41-SG meteocampoo.es - http://radiosondy.info
EA1JAY-16S50101912022-12-06 23:38:2243.501-3.7347991395927Clb=3.7m/s t=-22.2C h=9.6% 401.500MHz Type=RS41-SG rdzTTGOsonde
EA1JAY-16S50101912022-12-06 23:38:1543.5009-3.7372789355857Clb=3.3m/s t=-21.6C h=10.1% 401.500MHz Type=RS41-SG rdzTTGOsonde
EA1EF-14S50101912022-12-06 23:38:1443.5007-3.7399986355779Clb=2.9m/s t=-21.1C 401.50MHz Type=RS41-SG meteocampoo.es - http://radiosondy.info
EA1JAY-16S50101912022-12-06 23:38:1343.5007-3.7399987355779Clb=2.9m/s t=-20.8C h=10.4% 401.500MHz Type=RS41-SG rdzTTGOsonde
EA1JAY-16S50101912022-12-06 23:37:5343.5004-3.7426782375704Clb=3.0m/s t=-20.2C h=11.0% 401.500MHz Type=RS41-SG rdzTTGOsonde
EA1EF-14S50101912022-12-06 23:37:4143.5003-3.7437480355672Clb=3.7m/s t=-20.2C 401.50MHz Type=RS41-SG meteocampoo.es - http://radiosondy.info
EA1EF-14S50101912022-12-06 23:37:1543.5-3.7456383355616Clb=3.8m/s t=-19.7C 401.50MHz Type=RS41-SG meteocampoo.es - http://radiosondy.info
EA1JAY-16S50101912022-12-06 23:37:1343.5-3.7456384375616Clb=3.9m/s t=-19.4C h=9.7% 401.500MHz Type=RS41-SG rdzTTGOsonde
EA1EF-14S50101912022-12-06 23:36:4843.4998-3.7477282335552Clb=3.3m/s t=-19.2C 401.50MHz Type=RS41-SG meteocampoo.es - http://radiosondy.info
EA1JAY-16S50101912022-12-06 23:36:4343.4998-3.7480682335542Clb=3.8m/s t=-18.8C h=8.7% 401.500MHz Type=RS41-SG rdzTTGOsonde
EA1EF-14S50101912022-12-06 23:36:2443.4996-3.7495182335497Clb=3.6m/s t=-18.7C 401.50MHz Type=RS41-SG meteocampoo.es - http://radiosondy.info
EA1JAY-16S50101912022-12-06 23:36:0943.4994-3.7507381335457Clb=3.3m/s t=-18.0C h=9.1% 401.500MHz Type=RS41-SG rdzTTGOsonde
EA1EF-14S50101912022-12-06 23:36:0443.4993-3.751379315440Clb=3.7m/s t=-18.1C 401.50MHz Type=RS41-SG meteocampoo.es - http://radiosondy.info
EA1JAY-16S50101912022-12-06 23:35:4443.4989-3.7531474285376Clb=3.3m/s t=-17.3C h=7.9% 401.500MHz Type=RS41-SG rdzTTGOsonde
EA1JAY-16S50101912022-12-06 23:35:2343.4986-3.7552678315302Clb=3.4m/s t=-16.7C h=8.0% 401.500MHz Type=RS41-SG rdzTTGOsonde
EA1EF-14S50101912022-12-06 23:35:1243.4983-3.7566380315256Clb=3.4m/s 401.50MHz Type=RS41 meteocampoo.es - http://radiosondy.info
EA1JAY-16S50101912022-12-06 23:35:0243.4981-3.7574775305229Clb=3.7m/s t=-16.1C h=8.2% 401.500MHz Type=RS41-SG rdzTTGOsonde
EA1EF-14S50101912022-12-06 23:34:5543.498-3.7582775305202Clb=3.6m/s Type=RS41 meteocampoo.es - http://radiosondy.info
EA1JAY-16S50101912022-12-06 23:34:4243.4977-3.7596174315156Clb=3.3m/s t=-15.4C h=7.8% 401.500MHz Type=RS41-SG rdzTTGOsonde
EA1JAY-16S50101912022-12-06 23:34:2043.4972-3.7617372305080Clb=3.4m/s t=-14.8C h=8.0% 401.500MHz Type=RS41-SG rdzTTGOsonde
EA1JAY-16S50101912022-12-06 23:33:5943.4968-3.7637476265005Clb=4.4m/s t=-14.2C h=8.3% 401.500MHz Type=RS41-SG rdzTTGOsonde
EA1JAY-16S50101912022-12-06 23:33:4943.4964-3.7656684284927Clb=4.3m/s t=-13.5C h=7.9% 401.500MHz Type=RS41-SG rdzTTGOsonde
EA1JAY-16S50101912022-12-06 23:33:4243.4962-3.7674494284852Clb=4.8m/s t=-12.8C h=7.4% 401.500MHz Type=RS41-SG rdzTTGOsonde
EA1JAY-16S50101912022-12-06 23:33:1843.496-3.7691984224775Clb=4.4m/s t=-12.1C h=7.8% 401.500MHz Type=RS41-SG rdzTTGOsonde
EA1JAY-16S50101912022-12-06 23:32:5043.4958-3.7707778204691Clb=4.1m/s t=-11.4C h=7.4% 401.500MHz Type=RS41-SG rdzTTGOsonde
EA1EF-14S50101912022-12-06 23:32:3143.4957-3.771884204633Clb=3.3m/s Type=RS41 meteocampoo.es - http://radiosondy.info
EA1JAY-16S50101912022-12-06 23:32:2143.4956-3.7722374204610Clb=4.1m/s t=-10.6C h=5.8% 401.500MHz Type=RS41-SG rdzTTGOsonde
EA1JAY-16S50101912022-12-06 23:31:5543.4952-3.7736573224538Clb=3.8m/s t=-10.0C h=5.0% 401.500MHz Type=RS41-SG rdzTTGOsonde
EA1JAY-16S50101912022-12-06 23:31:3543.4949-3.7751383284470Clb=4.9m/s t=-9.6C h=4.3% 401.500MHz Type=RS41-SG rdzTTGOsonde
EA1EF-14S50101912022-12-06 23:31:2043.4948-3.7763987204408Clb=3.9m/s Type=RS41 meteocampoo.es - http://radiosondy.info
EA1JAY-16S50101912022-12-06 23:31:1343.4948-3.7767773194385Clb=2.8m/s t=-9.1C h=4.2% 401.500MHz Type=RS41-SG rdzTTGOsonde
EA1JAY-16S50101912022-12-06 23:30:5343.4946-3.778185194312Clb=5.3m/s t=-8.9C h=5.1% 401.500MHz Type=RS41-SG rdzTTGOsonde
EA1EF-14S50101912022-12-06 23:30:4443.4945-3.778686494272Clb=3.5m/s Type=RS41 meteocampoo.es - http://radiosondy.info
EA1JAY-16S50101912022-12-06 23:30:3243.4944-3.779059394226Clb=4.2m/s t=-9.0C h=8.8% 401.500MHz Type=RS41-SG rdzTTGOsonde
EA1EF-14S50101912022-12-06 23:30:2743.4944-3.779236994206Clb=4.3m/s Type=RS41 meteocampoo.es - http://radiosondy.info
EA1JAY-16S50101912022-12-06 23:30:1243.4943-3.779698094150Clb=5.9m/s t=-8.8C h=20.8% 401.500MHz Type=RS41-SG rdzTTGOsonde
EA1EF-14S50101912022-12-06 23:30:1143.4943-3.7797591114141Clb=4.6m/s Type=RS41 meteocampoo.es - http://radiosondy.info
EA1EF-14S50101912022-12-06 23:29:5643.4941-3.7802651174083Clb=2.8m/s Type=RS41 meteocampoo.es - http://radiosondy.info
EA1JAY-16S50101912022-12-06 23:29:5143.494-3.7804364154070Clb=3.0m/s t=-8.5C h=32.3% 401.500MHz Type=RS41-SG rdzTTGOsonde
EA1EF-14S50101912022-12-06 23:29:4043.4937-3.7809651194028Clb=4.2m/s Type=RS41 meteocampoo.es - http://radiosondy.info
EA1JAY-16S50101912022-12-06 23:29:3043.4934-3.7813544203990Clb=6.4m/s t=-7.9C h=32.3% 401.500MHz Type=RS41-SG rdzTTGOsonde
EA1EF-14S50101912022-12-06 23:29:2443.4932-3.7817140173960Clb=2.9m/s Type=RS41 meteocampoo.es - http://radiosondy.info
EA1JAY-16S50101912022-12-06 23:29:1943.4929-3.7822775133907Clb=3.1m/s t=-7.8C h=42.8% 401.500MHz Type=RS41-SG rdzTTGOsonde
EA1JAY-16S50101912022-12-06 23:28:5643.4924-3.78294893826Clb=3.8m/s t=-7.2C h=46.3% 401.500MHz Type=RS41-SG rdzTTGOsonde
EA1JAY-16S50101912022-12-06 23:28:3243.4919-3.7834732153747Clb=3.7m/s t=-6.6C h=49.1% 401.500MHz Type=RS41-SG rdzTTGOsonde
EA1JAY-16S50101912022-12-06 23:27:5943.491-3.7842633133647Clb=4.5m/s t=-6.0C h=54.9% 401.500MHz Type=RS41-SG rdzTTGOsonde
EA1JAY-16S50101912022-12-06 23:27:3843.4905-3.7847524133574Clb=2.9m/s t=-5.7C h=59.9% 401.500MHz Type=RS41-SG rdzTTGOsonde
EA1JAY-16S50101912022-12-06 23:27:1643.4902-3.7850311093491Clb=4.1m/s t=-5.9C h=70.5% 401.500MHz Type=RS41-SG rdzTTGOsonde
EA1JAY-16S50101912022-12-06 23:26:5243.4904-3.7855311863396Clb=4.7m/s t=-6.2C h=81.3% 401.500MHz Type=RS41-SG rdzTTGOsonde
EA1JAY-16S50101912022-12-06 23:26:3243.4905-3.7858611763322Clb=4.2m/s t=-6.1C h=92.5% 401.500MHz Type=RS41-SG rdzTTGOsonde
EA1JAY-16S50101912022-12-06 23:26:1243.4906-3.7860921773253Clb=2.9m/s t=-5.6C h=93.6% 401.500MHz Type=RS41-SG rdzTTGOsonde
EA1JAY-16S50101912022-12-06 23:25:5143.4909-3.7860514763162Clb=4.6m/s t=-4.9C h=94.7% 401.500MHz Type=RS41-SG rdzTTGOsonde
EA1JAY-16S50101912022-12-06 23:25:3143.4911-3.7860921073090Clb=3.7m/s t=-4.5C h=94.2% 401.500MHz Type=RS41-SG rdzTTGOsonde
EA1JAY-16S50101912022-12-06 23:25:1343.4915-3.7860517873011Clb=4.1m/s t=-4.3C h=89.3% 401.500MHz Type=RS41-SG rdzTTGOsonde
EA1JAY-16S50101912022-12-06 23:24:3543.4918-3.785914772872Clb=3.9m/s t=-3.9C h=95.2% 401.500MHz Type=RS41-SG rdzTTGOsonde
EA1JAY-16S50101912022-12-06 23:24:0943.4917-3.7863361132799Clb=3.0m/s t=-3.7C h=96.8% 401.500MHz Type=RS41-SG rdzTTGOsonde
EA1JAY-16S50101912022-12-06 23:23:3543.4907-3.7872158172624Clb=6.1m/s t=-3.0C h=100.6% 401.500MHz Type=RS41-SG rdzTTGOsonde
EA1JAY-16S50101912022-12-06 23:22:5243.4899-3.788084762387Clb=4.4m/s t=-1.4C h=100.6% 401.500MHz Type=RS41-SG rdzTTGOsonde
EA1JAY-16S50101912022-12-06 23:22:3143.4897-3.7885846172295Clb=4.3m/s t=-0.7C h=96.9% 401.500MHz Type=RS41-SG rdzTTGOsonde
EA1JAY-16S50101912022-12-06 23:22:1043.4895-3.78928192191Clb=3.4m/s t=0.1C h=93.7% 401.500MHz Type=RS41-SG rdzTTGOsonde
EA1JAY-16S50101912022-12-06 23:21:4943.4893-3.789628562090Clb=6.6m/s t=0.8C h=91.7% 401.500MHz Type=RS41-SG rdzTTGOsonde
EA1JAY-16S50101912022-12-06 23:21:2443.4893-3.7900918541960Clb=6.7m/s t=1.9C h=88.3% 401.500MHz Type=RS41-SG rdzTTGOsonde
EA1JAY-16S50101912022-12-06 23:21:0343.4893-3.7904510891857Clb=4.2m/s t=2.6C h=85.8% 401.500MHz Type=RS41-SG rdzTTGOsonde
EA1JAY-16S50101912022-12-06 23:20:4543.4895-3.79112129131761Clb=5.8m/s t=3.0C h=89.4% 401.500MHz Type=RS41-SG rdzTTGOsonde
EA1JAY-16S50101912022-12-06 23:20:2343.4898-3.791712961679Clb=2.3m/s t=3.6C h=88.6% 401.500MHz Type=RS41-SG rdzTTGOsonde
EA1JAY-16S50101912022-12-06 23:20:0343.4899-3.79199103131582Clb=4.2m/s t=4.2C 401.500MHz Type=RS41-SG rdzTTGOsonde
EA1JAY-16S50101912022-12-06 23:19:4243.49-3.7925615541500Clb=6.6m/s 401.500MHz Type=RS41-SG rdzTTGOsonde
EA1JAY-16S50101912022-12-06 23:19:2143.4903-3.7931313891412Clb=4.6m/s 401.500MHz Type=RS41 rdzTTGOsonde